<?xml version="1.0" encoding="UTF-8" standalone="no" ?>
<gpx xmlns="http://www.topografix.com/GPX/1/1" xmlns:xsi="http://www.w3.org/2001/XMLSchema-instance" xsi:schemaLocation="http://www.topografix.com/GPX/1/1 http://www.topografix.com/GPX/1/1/gpx.xsd" version="1.1" creator="VisuGPX - https://www.visugpx.com">
  <metadata>
    <name>Les Arcs - Taradeau</name>
    <desc><![CDATA[Petite sortie VTT empruntant une partie du parcours de la course des Chancrouns. Se fait aussi très bien en CAP (~1h).]]></desc>
  </metadata>
  <trk>
    <name><![CDATA[Les Arcs - Taradeau_1]]></name>
    <trkseg>
      <trkpt lat="43.46037" lon="6.48111">
        <ele>78</ele>
        <time>2017-09-23T15:28:54Z</time>
      </trkpt>
      <trkpt lat="43.46044" lon="6.48103">
        <ele>78</ele>
        <time>2017-09-23T15:28:58Z</time>
      </trkpt>
      <trkpt lat="43.46053" lon="6.48096">
        <ele>78</ele>
        <time>2017-09-23T15:29:02Z</time>
      </trkpt>
      <trkpt lat="43.46063" lon="6.48086">
        <ele>79</ele>
        <time>2017-09-23T15:29:06Z</time>
      </trkpt>
      <trkpt lat="43.46074" lon="6.48076">
        <ele>81</ele>
        <time>2017-09-23T15:29:10Z</time>
      </trkpt>
      <trkpt lat="43.46085" lon="6.48063">
        <ele>80</ele>
        <time>2017-09-23T15:29:15Z</time>
      </trkpt>
      <trkpt lat="43.46096" lon="6.48045">
        <ele>80</ele>
        <time>2017-09-23T15:29:19Z</time>
      </trkpt>
      <trkpt lat="43.46108" lon="6.48036">
        <ele>81</ele>
        <time>2017-09-23T15:29:23Z</time>
      </trkpt>
      <trkpt lat="43.46115" lon="6.48027">
        <ele>81</ele>
        <time>2017-09-23T15:29:27Z</time>
      </trkpt>
      <trkpt lat="43.46111" lon="6.48015">
        <ele>81</ele>
        <time>2017-09-23T15:29:29Z</time>
      </trkpt>
      <trkpt lat="43.461" lon="6.48004">
        <ele>82</ele>
        <time>2017-09-23T15:29:31Z</time>
      </trkpt>
      <trkpt lat="43.46094" lon="6.47993">
        <ele>84</ele>
        <time>2017-09-23T15:29:33Z</time>
      </trkpt>
      <trkpt lat="43.46089" lon="6.47983">
        <ele>84</ele>
        <time>2017-09-23T15:29:35Z</time>
      </trkpt>
      <trkpt lat="43.4608" lon="6.47968">
        <ele>85</ele>
        <time>2017-09-23T15:29:38Z</time>
      </trkpt>
      <trkpt lat="43.46074" lon="6.47959">
        <ele>85</ele>
        <time>2017-09-23T15:29:40Z</time>
      </trkpt>
      <trkpt lat="43.46068" lon="6.47949">
        <ele>85</ele>
        <time>2017-09-23T15:29:42Z</time>
      </trkpt>
      <trkpt lat="43.46058" lon="6.47928">
        <ele>86</ele>
        <time>2017-09-23T15:29:46Z</time>
      </trkpt>
      <trkpt lat="43.46053" lon="6.47917">
        <ele>86</ele>
        <time>2017-09-23T15:29:48Z</time>
      </trkpt>
      <trkpt lat="43.46049" lon="6.47904">
        <ele>86</ele>
        <time>2017-09-23T15:29:50Z</time>
      </trkpt>
      <trkpt lat="43.46045" lon="6.4789">
        <ele>86</ele>
        <time>2017-09-23T15:29:52Z</time>
      </trkpt>
      <trkpt lat="43.46041" lon="6.47875">
        <ele>86</ele>
        <time>2017-09-23T15:29:54Z</time>
      </trkpt>
      <trkpt lat="43.46035" lon="6.47853">
        <ele>86</ele>
        <time>2017-09-23T15:29:57Z</time>
      </trkpt>
      <trkpt lat="43.46031" lon="6.47838">
        <ele>86</ele>
        <time>2017-09-23T15:29:59Z</time>
      </trkpt>
      <trkpt lat="43.46027" lon="6.47824">
        <ele>86</ele>
        <time>2017-09-23T15:30:01Z</time>
      </trkpt>
      <trkpt lat="43.46022" lon="6.47809">
        <ele>86</ele>
        <time>2017-09-23T15:30:03Z</time>
      </trkpt>
      <trkpt lat="43.46017" lon="6.47796">
        <ele>86</ele>
        <time>2017-09-23T15:30:05Z</time>
      </trkpt>
      <trkpt lat="43.46011" lon="6.47783">
        <ele>86</ele>
        <time>2017-09-23T15:30:07Z</time>
      </trkpt>
      <trkpt lat="43.46007" lon="6.47771">
        <ele>86</ele>
        <time>2017-09-23T15:30:09Z</time>
      </trkpt>
      <trkpt lat="43.46002" lon="6.47758">
        <ele>86</ele>
        <time>2017-09-23T15:30:11Z</time>
      </trkpt>
      <trkpt lat="43.45995" lon="6.47748">
        <ele>85</ele>
        <time>2017-09-23T15:30:13Z</time>
      </trkpt>
      <trkpt lat="43.45985" lon="6.47736">
        <ele>84</ele>
        <time>2017-09-23T15:30:15Z</time>
      </trkpt>
      <trkpt lat="43.45969" lon="6.47715">
        <ele>84</ele>
        <time>2017-09-23T15:30:18Z</time>
      </trkpt>
      <trkpt lat="43.45961" lon="6.47697">
        <ele>83</ele>
        <time>2017-09-23T15:30:20Z</time>
      </trkpt>
      <trkpt lat="43.45953" lon="6.4768">
        <ele>83</ele>
        <time>2017-09-23T15:30:22Z</time>
      </trkpt>
      <trkpt lat="43.45945" lon="6.47664">
        <ele>84</ele>
        <time>2017-09-23T15:30:24Z</time>
      </trkpt>
      <trkpt lat="43.45936" lon="6.47648">
        <ele>84</ele>
        <time>2017-09-23T15:30:26Z</time>
      </trkpt>
      <trkpt lat="43.45928" lon="6.47631">
        <ele>84</ele>
        <time>2017-09-23T15:30:28Z</time>
      </trkpt>
      <trkpt lat="43.45918" lon="6.47617">
        <ele>84</ele>
        <time>2017-09-23T15:30:30Z</time>
      </trkpt>
      <trkpt lat="43.45907" lon="6.47603">
        <ele>80</ele>
        <time>2017-09-23T15:30:32Z</time>
      </trkpt>
      <trkpt lat="43.45898" lon="6.47588">
        <ele>80</ele>
        <time>2017-09-23T15:30:34Z</time>
      </trkpt>
      <trkpt lat="43.45888" lon="6.47574">
        <ele>80</ele>
        <time>2017-09-23T15:30:36Z</time>
      </trkpt>
      <trkpt lat="43.45879" lon="6.47557">
        <ele>80</ele>
        <time>2017-09-23T15:30:38Z</time>
      </trkpt>
      <trkpt lat="43.45865" lon="6.47532">
        <ele>80</ele>
        <time>2017-09-23T15:30:41Z</time>
      </trkpt>
      <trkpt lat="43.45857" lon="6.47515">
        <ele>79</ele>
        <time>2017-09-23T15:30:43Z</time>
      </trkpt>
      <trkpt lat="43.45848" lon="6.47497">
        <ele>80</ele>
        <time>2017-09-23T15:30:45Z</time>
      </trkpt>
      <trkpt lat="43.4584" lon="6.4748">
        <ele>81</ele>
        <time>2017-09-23T15:30:47Z</time>
      </trkpt>
      <trkpt lat="43.45832" lon="6.47462">
        <ele>77</ele>
        <time>2017-09-23T15:30:49Z</time>
      </trkpt>
      <trkpt lat="43.45824" lon="6.47445">
        <ele>78</ele>
        <time>2017-09-23T15:30:51Z</time>
      </trkpt>
      <trkpt lat="43.45818" lon="6.4743">
        <ele>78</ele>
        <time>2017-09-23T15:30:53Z</time>
      </trkpt>
      <trkpt lat="43.45811" lon="6.47412">
        <ele>79</ele>
        <time>2017-09-23T15:30:57Z</time>
      </trkpt>
      <trkpt lat="43.45807" lon="6.47395">
        <ele>79</ele>
        <time>2017-09-23T15:31:00Z</time>
      </trkpt>
      <trkpt lat="43.45802" lon="6.47383">
        <ele>79</ele>
        <time>2017-09-23T15:31:02Z</time>
      </trkpt>
      <trkpt lat="43.45799" lon="6.47372">
        <ele>79</ele>
        <time>2017-09-23T15:31:04Z</time>
      </trkpt>
      <trkpt lat="43.45795" lon="6.47359">
        <ele>79</ele>
        <time>2017-09-23T15:31:06Z</time>
      </trkpt>
      <trkpt lat="43.45796" lon="6.47339">
        <ele>80</ele>
        <time>2017-09-23T15:31:10Z</time>
      </trkpt>
      <trkpt lat="43.4581" lon="6.47344">
        <ele>81</ele>
        <time>2017-09-23T15:31:14Z</time>
      </trkpt>
      <trkpt lat="43.45822" lon="6.47354">
        <ele>81</ele>
        <time>2017-09-23T15:31:18Z</time>
      </trkpt>
      <trkpt lat="43.45833" lon="6.47365">
        <ele>88</ele>
        <time>2017-09-23T15:31:23Z</time>
      </trkpt>
      <trkpt lat="43.45841" lon="6.47373">
        <ele>88</ele>
        <time>2017-09-23T15:31:25Z</time>
      </trkpt>
      <trkpt lat="43.45852" lon="6.47385">
        <ele>88</ele>
        <time>2017-09-23T15:31:29Z</time>
      </trkpt>
      <trkpt lat="43.45861" lon="6.47394">
        <ele>88</ele>
        <time>2017-09-23T15:31:33Z</time>
      </trkpt>
      <trkpt lat="43.45871" lon="6.47399">
        <ele>89</ele>
        <time>2017-09-23T15:31:37Z</time>
      </trkpt>
      <trkpt lat="43.45882" lon="6.47401">
        <ele>90</ele>
        <time>2017-09-23T15:31:42Z</time>
      </trkpt>
      <trkpt lat="43.45891" lon="6.47404">
        <ele>91</ele>
        <time>2017-09-23T15:31:46Z</time>
      </trkpt>
      <trkpt lat="43.45899" lon="6.47412">
        <ele>92</ele>
        <time>2017-09-23T15:31:50Z</time>
      </trkpt>
      <trkpt lat="43.45908" lon="6.47422">
        <ele>91</ele>
        <time>2017-09-23T15:31:54Z</time>
      </trkpt>
      <trkpt lat="43.45917" lon="6.47435">
        <ele>89</ele>
        <time>2017-09-23T15:31:58Z</time>
      </trkpt>
      <trkpt lat="43.45925" lon="6.47447">
        <ele>96</ele>
        <time>2017-09-23T15:32:02Z</time>
      </trkpt>
      <trkpt lat="43.45936" lon="6.47463">
        <ele>96</ele>
        <time>2017-09-23T15:32:07Z</time>
      </trkpt>
      <trkpt lat="43.45943" lon="6.47475">
        <ele>96</ele>
        <time>2017-09-23T15:32:11Z</time>
      </trkpt>
      <trkpt lat="43.45952" lon="6.47488">
        <ele>96</ele>
        <time>2017-09-23T15:32:15Z</time>
      </trkpt>
      <trkpt lat="43.45961" lon="6.47501">
        <ele>92</ele>
        <time>2017-09-23T15:32:19Z</time>
      </trkpt>
      <trkpt lat="43.4597" lon="6.47513">
        <ele>93</ele>
        <time>2017-09-23T15:32:23Z</time>
      </trkpt>
      <trkpt lat="43.45984" lon="6.47525">
        <ele>94</ele>
        <time>2017-09-23T15:32:28Z</time>
      </trkpt>
      <trkpt lat="43.45995" lon="6.47533">
        <ele>93</ele>
        <time>2017-09-23T15:32:32Z</time>
      </trkpt>
      <trkpt lat="43.46006" lon="6.47542">
        <ele>100</ele>
        <time>2017-09-23T15:32:36Z</time>
      </trkpt>
      <trkpt lat="43.46018" lon="6.47552">
        <ele>100</ele>
        <time>2017-09-23T15:32:40Z</time>
      </trkpt>
      <trkpt lat="43.4603" lon="6.47562">
        <ele>100</ele>
        <time>2017-09-23T15:32:44Z</time>
      </trkpt>
      <trkpt lat="43.4604" lon="6.47574">
        <ele>100</ele>
        <time>2017-09-23T15:32:48Z</time>
      </trkpt>
      <trkpt lat="43.4605" lon="6.47578">
        <ele>101</ele>
        <time>2017-09-23T15:32:51Z</time>
      </trkpt>
      <trkpt lat="43.46062" lon="6.47582">
        <ele>102</ele>
        <time>2017-09-23T15:32:55Z</time>
      </trkpt>
      <trkpt lat="43.46073" lon="6.47586">
        <ele>100</ele>
        <time>2017-09-23T15:32:59Z</time>
      </trkpt>
      <trkpt lat="43.46085" lon="6.47588">
        <ele>103</ele>
        <time>2017-09-23T15:33:03Z</time>
      </trkpt>
      <trkpt lat="43.46098" lon="6.47586">
        <ele>103</ele>
        <time>2017-09-23T15:33:07Z</time>
      </trkpt>
      <trkpt lat="43.46108" lon="6.47588">
        <ele>103</ele>
        <time>2017-09-23T15:33:10Z</time>
      </trkpt>
      <trkpt lat="43.46119" lon="6.47597">
        <ele>103</ele>
        <time>2017-09-23T15:33:14Z</time>
      </trkpt>
      <trkpt lat="43.46129" lon="6.47608">
        <ele>103</ele>
        <time>2017-09-23T15:33:18Z</time>
      </trkpt>
      <trkpt lat="43.46138" lon="6.4762">
        <ele>103</ele>
        <time>2017-09-23T15:33:22Z</time>
      </trkpt>
      <trkpt lat="43.46148" lon="6.47632">
        <ele>103</ele>
        <time>2017-09-23T15:33:26Z</time>
      </trkpt>
      <trkpt lat="43.46161" lon="6.47645">
        <ele>102</ele>
        <time>2017-09-23T15:33:30Z</time>
      </trkpt>
      <trkpt lat="43.46178" lon="6.47656">
        <ele>104</ele>
        <time>2017-09-23T15:33:35Z</time>
      </trkpt>
      <trkpt lat="43.46186" lon="6.47645">
        <ele>106</ele>
        <time>2017-09-23T15:33:39Z</time>
      </trkpt>
      <trkpt lat="43.46186" lon="6.47627">
        <ele>108</ele>
        <time>2017-09-23T15:33:43Z</time>
      </trkpt>
      <trkpt lat="43.46185" lon="6.47614">
        <ele>109</ele>
        <time>2017-09-23T15:33:47Z</time>
      </trkpt>
      <trkpt lat="43.46184" lon="6.47596">
        <ele>110</ele>
        <time>2017-09-23T15:33:53Z</time>
      </trkpt>
      <trkpt lat="43.4618" lon="6.47578">
        <ele>113</ele>
        <time>2017-09-23T15:34:00Z</time>
      </trkpt>
      <trkpt lat="43.46173" lon="6.47564">
        <ele>113</ele>
        <time>2017-09-23T15:34:06Z</time>
      </trkpt>
      <trkpt lat="43.46167" lon="6.47554">
        <ele>111</ele>
        <time>2017-09-23T15:34:10Z</time>
      </trkpt>
      <trkpt lat="43.4616" lon="6.47542">
        <ele>111</ele>
        <time>2017-09-23T15:34:14Z</time>
      </trkpt>
      <trkpt lat="43.46152" lon="6.47532">
        <ele>111</ele>
        <time>2017-09-23T15:34:18Z</time>
      </trkpt>
      <trkpt lat="43.46145" lon="6.4752">
        <ele>112</ele>
        <time>2017-09-23T15:34:23Z</time>
      </trkpt>
      <trkpt lat="43.46136" lon="6.47504">
        <ele>112</ele>
        <time>2017-09-23T15:34:27Z</time>
      </trkpt>
      <trkpt lat="43.46129" lon="6.47489">
        <ele>114</ele>
        <time>2017-09-23T15:34:31Z</time>
      </trkpt>
      <trkpt lat="43.46125" lon="6.47472">
        <ele>114</ele>
        <time>2017-09-23T15:34:35Z</time>
      </trkpt>
      <trkpt lat="43.46124" lon="6.47451">
        <ele>115</ele>
        <time>2017-09-23T15:34:39Z</time>
      </trkpt>
      <trkpt lat="43.46118" lon="6.47437">
        <ele>115</ele>
        <time>2017-09-23T15:34:42Z</time>
      </trkpt>
      <trkpt lat="43.46117" lon="6.47416">
        <ele>116</ele>
        <time>2017-09-23T15:34:46Z</time>
      </trkpt>
      <trkpt lat="43.46133" lon="6.47406">
        <ele>117</ele>
        <time>2017-09-23T15:34:50Z</time>
      </trkpt>
      <trkpt lat="43.46148" lon="6.47398">
        <ele>117</ele>
        <time>2017-09-23T15:34:54Z</time>
      </trkpt>
      <trkpt lat="43.46163" lon="6.47392">
        <ele>117</ele>
        <time>2017-09-23T15:34:58Z</time>
      </trkpt>
      <trkpt lat="43.46179" lon="6.47386">
        <ele>119</ele>
        <time>2017-09-23T15:35:02Z</time>
      </trkpt>
      <trkpt lat="43.46188" lon="6.47377">
        <ele>119</ele>
        <time>2017-09-23T15:35:05Z</time>
      </trkpt>
      <trkpt lat="43.462" lon="6.47363">
        <ele>119</ele>
        <time>2017-09-23T15:35:09Z</time>
      </trkpt>
      <trkpt lat="43.46212" lon="6.47349">
        <ele>119</ele>
        <time>2017-09-23T15:35:13Z</time>
      </trkpt>
      <trkpt lat="43.46223" lon="6.47334">
        <ele>120</ele>
        <time>2017-09-23T15:35:17Z</time>
      </trkpt>
      <trkpt lat="43.46235" lon="6.47321">
        <ele>121</ele>
        <time>2017-09-23T15:35:21Z</time>
      </trkpt>
      <trkpt lat="43.46245" lon="6.47311">
        <ele>121</ele>
        <time>2017-09-23T15:35:24Z</time>
      </trkpt>
      <trkpt lat="43.46258" lon="6.47296">
        <ele>121</ele>
        <time>2017-09-23T15:35:28Z</time>
      </trkpt>
      <trkpt lat="43.46271" lon="6.47282">
        <ele>121</ele>
        <time>2017-09-23T15:35:32Z</time>
      </trkpt>
      <trkpt lat="43.46278" lon="6.47265">
        <ele>121</ele>
        <time>2017-09-23T15:35:36Z</time>
      </trkpt>
      <trkpt lat="43.4627" lon="6.47245">
        <ele>121</ele>
        <time>2017-09-23T15:35:40Z</time>
      </trkpt>
      <trkpt lat="43.46261" lon="6.47239">
        <ele>121</ele>
        <time>2017-09-23T15:35:42Z</time>
      </trkpt>
      <trkpt lat="43.46253" lon="6.47234">
        <ele>121</ele>
        <time>2017-09-23T15:35:44Z</time>
      </trkpt>
      <trkpt lat="43.46244" lon="6.47229">
        <ele>121</ele>
        <time>2017-09-23T15:35:46Z</time>
      </trkpt>
      <trkpt lat="43.4623" lon="6.47223">
        <ele>121</ele>
        <time>2017-09-23T15:35:49Z</time>
      </trkpt>
      <trkpt lat="43.46214" lon="6.47213">
        <ele>121</ele>
        <time>2017-09-23T15:35:53Z</time>
      </trkpt>
      <trkpt lat="43.46198" lon="6.472">
        <ele>121</ele>
        <time>2017-09-23T15:35:57Z</time>
      </trkpt>
      <trkpt lat="43.46189" lon="6.47194">
        <ele>121</ele>
        <time>2017-09-23T15:35:59Z</time>
      </trkpt>
      <trkpt lat="43.46181" lon="6.47187">
        <ele>121</ele>
        <time>2017-09-23T15:36:01Z</time>
      </trkpt>
      <trkpt lat="43.46171" lon="6.47181">
        <ele>121</ele>
        <time>2017-09-23T15:36:03Z</time>
      </trkpt>
      <trkpt lat="43.46163" lon="6.47172">
        <ele>121</ele>
        <time>2017-09-23T15:36:05Z</time>
      </trkpt>
      <trkpt lat="43.46149" lon="6.4716">
        <ele>121</ele>
        <time>2017-09-23T15:36:08Z</time>
      </trkpt>
      <trkpt lat="43.46139" lon="6.47153">
        <ele>121</ele>
        <time>2017-09-23T15:36:10Z</time>
      </trkpt>
      <trkpt lat="43.46129" lon="6.47146">
        <ele>121</ele>
        <time>2017-09-23T15:36:12Z</time>
      </trkpt>
      <trkpt lat="43.4612" lon="6.4714">
        <ele>121</ele>
        <time>2017-09-23T15:36:14Z</time>
      </trkpt>
      <trkpt lat="43.4611" lon="6.47132">
        <ele>121</ele>
        <time>2017-09-23T15:36:16Z</time>
      </trkpt>
      <trkpt lat="43.461" lon="6.47127">
        <ele>121</ele>
        <time>2017-09-23T15:36:18Z</time>
      </trkpt>
      <trkpt lat="43.46089" lon="6.47122">
        <ele>120</ele>
        <time>2017-09-23T15:36:20Z</time>
      </trkpt>
      <trkpt lat="43.4608" lon="6.47118">
        <ele>119</ele>
        <time>2017-09-23T15:36:22Z</time>
      </trkpt>
      <trkpt lat="43.46072" lon="6.47108">
        <ele>119</ele>
        <time>2017-09-23T15:36:24Z</time>
      </trkpt>
      <trkpt lat="43.46065" lon="6.47088">
        <ele>119</ele>
        <time>2017-09-23T15:36:26Z</time>
      </trkpt>
      <trkpt lat="43.46056" lon="6.47061">
        <ele>120</ele>
        <time>2017-09-23T15:36:31Z</time>
      </trkpt>
      <trkpt lat="43.46051" lon="6.47048">
        <ele>120</ele>
        <time>2017-09-23T15:36:33Z</time>
      </trkpt>
      <trkpt lat="43.46048" lon="6.47034">
        <ele>120</ele>
        <time>2017-09-23T15:36:35Z</time>
      </trkpt>
      <trkpt lat="43.46046" lon="6.47021">
        <ele>120</ele>
        <time>2017-09-23T15:36:37Z</time>
      </trkpt>
      <trkpt lat="43.46043" lon="6.46997">
        <ele>122</ele>
        <time>2017-09-23T15:36:41Z</time>
      </trkpt>
      <trkpt lat="43.4603" lon="6.46981">
        <ele>122</ele>
        <time>2017-09-23T15:36:45Z</time>
      </trkpt>
      <trkpt lat="43.46022" lon="6.46974">
        <ele>122</ele>
        <time>2017-09-23T15:36:47Z</time>
      </trkpt>
      <trkpt lat="43.46019" lon="6.46962">
        <ele>122</ele>
        <time>2017-09-23T15:36:49Z</time>
      </trkpt>
      <trkpt lat="43.46016" lon="6.46944">
        <ele>123</ele>
        <time>2017-09-23T15:36:52Z</time>
      </trkpt>
      <trkpt lat="43.46017" lon="6.46931">
        <ele>123</ele>
        <time>2017-09-23T15:36:54Z</time>
      </trkpt>
      <trkpt lat="43.46016" lon="6.46909">
        <ele>125</ele>
        <time>2017-09-23T15:36:58Z</time>
      </trkpt>
      <trkpt lat="43.46017" lon="6.46884">
        <ele>127</ele>
        <time>2017-09-23T15:37:02Z</time>
      </trkpt>
      <trkpt lat="43.46015" lon="6.46864">
        <ele>128</ele>
        <time>2017-09-23T15:37:06Z</time>
      </trkpt>
      <trkpt lat="43.46016" lon="6.46846">
        <ele>128</ele>
        <time>2017-09-23T15:37:10Z</time>
      </trkpt>
      <trkpt lat="43.46018" lon="6.46828">
        <ele>133</ele>
        <time>2017-09-23T15:37:15Z</time>
      </trkpt>
      <trkpt lat="43.46015" lon="6.46815">
        <ele>134</ele>
        <time>2017-09-23T15:37:17Z</time>
      </trkpt>
      <trkpt lat="43.46011" lon="6.46797">
        <ele>136</ele>
        <time>2017-09-23T15:37:21Z</time>
      </trkpt>
      <trkpt lat="43.46004" lon="6.46779">
        <ele>137</ele>
        <time>2017-09-23T15:37:25Z</time>
      </trkpt>
      <trkpt lat="43.45994" lon="6.46767">
        <ele>130</ele>
        <time>2017-09-23T15:37:29Z</time>
      </trkpt>
      <trkpt lat="43.45977" lon="6.46755">
        <ele>129</ele>
        <time>2017-09-23T15:37:33Z</time>
      </trkpt>
      <trkpt lat="43.45964" lon="6.46742">
        <ele>132</ele>
        <time>2017-09-23T15:37:36Z</time>
      </trkpt>
      <trkpt lat="43.45956" lon="6.46731">
        <ele>132</ele>
        <time>2017-09-23T15:37:38Z</time>
      </trkpt>
      <trkpt lat="43.45946" lon="6.46718">
        <ele>131</ele>
        <time>2017-09-23T15:37:40Z</time>
      </trkpt>
      <trkpt lat="43.45937" lon="6.46705">
        <ele>131</ele>
        <time>2017-09-23T15:37:42Z</time>
      </trkpt>
      <trkpt lat="43.45927" lon="6.46692">
        <ele>131</ele>
        <time>2017-09-23T15:37:44Z</time>
      </trkpt>
      <trkpt lat="43.45915" lon="6.4668">
        <ele>124</ele>
        <time>2017-09-23T15:37:46Z</time>
      </trkpt>
      <trkpt lat="43.45905" lon="6.46668">
        <ele>124</ele>
        <time>2017-09-23T15:37:48Z</time>
      </trkpt>
      <trkpt lat="43.45896" lon="6.46653">
        <ele>123</ele>
        <time>2017-09-23T15:37:50Z</time>
      </trkpt>
      <trkpt lat="43.45891" lon="6.46634">
        <ele>122</ele>
        <time>2017-09-23T15:37:52Z</time>
      </trkpt>
      <trkpt lat="43.45891" lon="6.46614">
        <ele>123</ele>
        <time>2017-09-23T15:37:55Z</time>
      </trkpt>
      <trkpt lat="43.45889" lon="6.46587">
        <ele>123</ele>
        <time>2017-09-23T15:37:57Z</time>
      </trkpt>
      <trkpt lat="43.45879" lon="6.4657">
        <ele>125</ele>
        <time>2017-09-23T15:37:59Z</time>
      </trkpt>
      <trkpt lat="43.45871" lon="6.46555">
        <ele>124</ele>
        <time>2017-09-23T15:38:01Z</time>
      </trkpt>
      <trkpt lat="43.45867" lon="6.46534">
        <ele>125</ele>
        <time>2017-09-23T15:38:03Z</time>
      </trkpt>
      <trkpt lat="43.45862" lon="6.46516">
        <ele>125</ele>
        <time>2017-09-23T15:38:05Z</time>
      </trkpt>
      <trkpt lat="43.45855" lon="6.46498">
        <ele>128</ele>
        <time>2017-09-23T15:38:07Z</time>
      </trkpt>
      <trkpt lat="43.45848" lon="6.46483">
        <ele>128</ele>
        <time>2017-09-23T15:38:09Z</time>
      </trkpt>
      <trkpt lat="43.45841" lon="6.46466">
        <ele>130</ele>
        <time>2017-09-23T15:38:11Z</time>
      </trkpt>
      <trkpt lat="43.45832" lon="6.46443">
        <ele>116</ele>
        <time>2017-09-23T15:38:14Z</time>
      </trkpt>
      <trkpt lat="43.4583" lon="6.46429">
        <ele>119</ele>
        <time>2017-09-23T15:38:16Z</time>
      </trkpt>
      <trkpt lat="43.4583" lon="6.46413">
        <ele>123</ele>
        <time>2017-09-23T15:38:18Z</time>
      </trkpt>
      <trkpt lat="43.4583" lon="6.46397">
        <ele>119</ele>
        <time>2017-09-23T15:38:20Z</time>
      </trkpt>
      <trkpt lat="43.4583" lon="6.46381">
        <ele>118</ele>
        <time>2017-09-23T15:38:22Z</time>
      </trkpt>
      <trkpt lat="43.45831" lon="6.46367">
        <ele>118</ele>
        <time>2017-09-23T15:38:24Z</time>
      </trkpt>
      <trkpt lat="43.45836" lon="6.46352">
        <ele>132</ele>
        <time>2017-09-23T15:38:26Z</time>
      </trkpt>
      <trkpt lat="43.45842" lon="6.46336">
        <ele>129</ele>
        <time>2017-09-23T15:38:28Z</time>
      </trkpt>
      <trkpt lat="43.45845" lon="6.46318">
        <ele>134</ele>
        <time>2017-09-23T15:38:30Z</time>
      </trkpt>
      <trkpt lat="43.45841" lon="6.46291">
        <ele>137</ele>
        <time>2017-09-23T15:38:33Z</time>
      </trkpt>
      <trkpt lat="43.45839" lon="6.46275">
        <ele>136</ele>
        <time>2017-09-23T15:38:35Z</time>
      </trkpt>
      <trkpt lat="43.4584" lon="6.46261">
        <ele>133</ele>
        <time>2017-09-23T15:38:37Z</time>
      </trkpt>
      <trkpt lat="43.45841" lon="6.46248">
        <ele>133</ele>
        <time>2017-09-23T15:38:39Z</time>
      </trkpt>
      <trkpt lat="43.45842" lon="6.46228">
        <ele>139</ele>
        <time>2017-09-23T15:38:43Z</time>
      </trkpt>
      <trkpt lat="43.45838" lon="6.46211">
        <ele>141</ele>
        <time>2017-09-23T15:38:47Z</time>
      </trkpt>
      <trkpt lat="43.45835" lon="6.4619">
        <ele>140</ele>
        <time>2017-09-23T15:38:52Z</time>
      </trkpt>
      <trkpt lat="43.45832" lon="6.46176">
        <ele>127</ele>
        <time>2017-09-23T15:38:56Z</time>
      </trkpt>
      <trkpt lat="43.4583" lon="6.46161">
        <ele>130</ele>
        <time>2017-09-23T15:39:00Z</time>
      </trkpt>
      <trkpt lat="43.45827" lon="6.46145">
        <ele>125</ele>
        <time>2017-09-23T15:39:04Z</time>
      </trkpt>
      <trkpt lat="43.45824" lon="6.46128">
        <ele>124</ele>
        <time>2017-09-23T15:39:08Z</time>
      </trkpt>
      <trkpt lat="43.4582" lon="6.46109">
        <ele>125</ele>
        <time>2017-09-23T15:39:12Z</time>
      </trkpt>
      <trkpt lat="43.45818" lon="6.4609">
        <ele>128</ele>
        <time>2017-09-23T15:39:15Z</time>
      </trkpt>
      <trkpt lat="43.45816" lon="6.46067">
        <ele>131</ele>
        <time>2017-09-23T15:39:19Z</time>
      </trkpt>
      <trkpt lat="43.45814" lon="6.4605">
        <ele>129</ele>
        <time>2017-09-23T15:39:21Z</time>
      </trkpt>
      <trkpt lat="43.45813" lon="6.46033">
        <ele>130</ele>
        <time>2017-09-23T15:39:23Z</time>
      </trkpt>
      <trkpt lat="43.45809" lon="6.46021">
        <ele>131</ele>
        <time>2017-09-23T15:39:25Z</time>
      </trkpt>
      <trkpt lat="43.45806" lon="6.46005">
        <ele>132</ele>
        <time>2017-09-23T15:39:27Z</time>
      </trkpt>
      <trkpt lat="43.45799" lon="6.45991">
        <ele>134</ele>
        <time>2017-09-23T15:39:29Z</time>
      </trkpt>
      <trkpt lat="43.45792" lon="6.45979">
        <ele>132</ele>
        <time>2017-09-23T15:39:31Z</time>
      </trkpt>
      <trkpt lat="43.45788" lon="6.45963">
        <ele>132</ele>
        <time>2017-09-23T15:39:34Z</time>
      </trkpt>
      <trkpt lat="43.45788" lon="6.45937">
        <ele>133</ele>
        <time>2017-09-23T15:39:38Z</time>
      </trkpt>
      <trkpt lat="43.4579" lon="6.45913">
        <ele>135</ele>
        <time>2017-09-23T15:39:42Z</time>
      </trkpt>
      <trkpt lat="43.45793" lon="6.459">
        <ele>135</ele>
        <time>2017-09-23T15:39:44Z</time>
      </trkpt>
      <trkpt lat="43.45793" lon="6.45884">
        <ele>135</ele>
        <time>2017-09-23T15:39:46Z</time>
      </trkpt>
      <trkpt lat="43.4579" lon="6.45868">
        <ele>135</ele>
        <time>2017-09-23T15:39:48Z</time>
      </trkpt>
      <trkpt lat="43.45783" lon="6.45852">
        <ele>133</ele>
        <time>2017-09-23T15:39:50Z</time>
      </trkpt>
      <trkpt lat="43.45782" lon="6.45835">
        <ele>132</ele>
        <time>2017-09-23T15:39:52Z</time>
      </trkpt>
      <trkpt lat="43.45781" lon="6.45819">
        <ele>132</ele>
        <time>2017-09-23T15:39:54Z</time>
      </trkpt>
      <trkpt lat="43.45781" lon="6.45803">
        <ele>133</ele>
        <time>2017-09-23T15:39:56Z</time>
      </trkpt>
      <trkpt lat="43.45777" lon="6.45789">
        <ele>133</ele>
        <time>2017-09-23T15:39:58Z</time>
      </trkpt>
      <trkpt lat="43.45776" lon="6.45766">
        <ele>132</ele>
        <time>2017-09-23T15:40:01Z</time>
      </trkpt>
      <trkpt lat="43.45778" lon="6.45752">
        <ele>132</ele>
        <time>2017-09-23T15:40:03Z</time>
      </trkpt>
      <trkpt lat="43.45778" lon="6.45738">
        <ele>132</ele>
        <time>2017-09-23T15:40:05Z</time>
      </trkpt>
      <trkpt lat="43.45776" lon="6.45724">
        <ele>132</ele>
        <time>2017-09-23T15:40:07Z</time>
      </trkpt>
      <trkpt lat="43.45775" lon="6.4571">
        <ele>132</ele>
        <time>2017-09-23T15:40:09Z</time>
      </trkpt>
      <trkpt lat="43.45773" lon="6.45696">
        <ele>132</ele>
        <time>2017-09-23T15:40:11Z</time>
      </trkpt>
      <trkpt lat="43.45771" lon="6.45682">
        <ele>130</ele>
        <time>2017-09-23T15:40:13Z</time>
      </trkpt>
      <trkpt lat="43.45769" lon="6.45668">
        <ele>129</ele>
        <time>2017-09-23T15:40:15Z</time>
      </trkpt>
      <trkpt lat="43.45766" lon="6.45653">
        <ele>128</ele>
        <time>2017-09-23T15:40:17Z</time>
      </trkpt>
      <trkpt lat="43.45765" lon="6.45638">
        <ele>129</ele>
        <time>2017-09-23T15:40:19Z</time>
      </trkpt>
      <trkpt lat="43.45769" lon="6.45622">
        <ele>130</ele>
        <time>2017-09-23T15:40:21Z</time>
      </trkpt>
      <trkpt lat="43.45777" lon="6.456">
        <ele>130</ele>
        <time>2017-09-23T15:40:24Z</time>
      </trkpt>
      <trkpt lat="43.45777" lon="6.45584">
        <ele>130</ele>
        <time>2017-09-23T15:40:26Z</time>
      </trkpt>
      <trkpt lat="43.45777" lon="6.4557">
        <ele>130</ele>
        <time>2017-09-23T15:40:28Z</time>
      </trkpt>
      <trkpt lat="43.45779" lon="6.45555">
        <ele>131</ele>
        <time>2017-09-23T15:40:30Z</time>
      </trkpt>
      <trkpt lat="43.45782" lon="6.45539">
        <ele>131</ele>
        <time>2017-09-23T15:40:32Z</time>
      </trkpt>
      <trkpt lat="43.45785" lon="6.45523">
        <ele>131</ele>
        <time>2017-09-23T15:40:34Z</time>
      </trkpt>
      <trkpt lat="43.45789" lon="6.45509">
        <ele>132</ele>
        <time>2017-09-23T15:40:36Z</time>
      </trkpt>
      <trkpt lat="43.45791" lon="6.45495">
        <ele>132</ele>
        <time>2017-09-23T15:40:38Z</time>
      </trkpt>
      <trkpt lat="43.45789" lon="6.45481">
        <ele>131</ele>
        <time>2017-09-23T15:40:40Z</time>
      </trkpt>
      <trkpt lat="43.45787" lon="6.45465">
        <ele>131</ele>
        <time>2017-09-23T15:40:42Z</time>
      </trkpt>
      <trkpt lat="43.45786" lon="6.45449">
        <ele>131</ele>
        <time>2017-09-23T15:40:44Z</time>
      </trkpt>
      <trkpt lat="43.45786" lon="6.45432">
        <ele>130</ele>
        <time>2017-09-23T15:40:46Z</time>
      </trkpt>
      <trkpt lat="43.45787" lon="6.45415">
        <ele>129</ele>
        <time>2017-09-23T15:40:48Z</time>
      </trkpt>
      <trkpt lat="43.45788" lon="6.45399">
        <ele>129</ele>
        <time>2017-09-23T15:40:50Z</time>
      </trkpt>
      <trkpt lat="43.45788" lon="6.45373">
        <ele>129</ele>
        <time>2017-09-23T15:40:53Z</time>
      </trkpt>
      <trkpt lat="43.45787" lon="6.45357">
        <ele>128</ele>
        <time>2017-09-23T15:40:55Z</time>
      </trkpt>
      <trkpt lat="43.45788" lon="6.4534">
        <ele>128</ele>
        <time>2017-09-23T15:40:57Z</time>
      </trkpt>
      <trkpt lat="43.45789" lon="6.45323">
        <ele>127</ele>
        <time>2017-09-23T15:40:59Z</time>
      </trkpt>
      <trkpt lat="43.45792" lon="6.45306">
        <ele>127</ele>
        <time>2017-09-23T15:41:01Z</time>
      </trkpt>
      <trkpt lat="43.45793" lon="6.4529">
        <ele>127</ele>
        <time>2017-09-23T15:41:03Z</time>
      </trkpt>
      <trkpt lat="43.45794" lon="6.45274">
        <ele>127</ele>
        <time>2017-09-23T15:41:05Z</time>
      </trkpt>
      <trkpt lat="43.45795" lon="6.4526">
        <ele>127</ele>
        <time>2017-09-23T15:41:07Z</time>
      </trkpt>
      <trkpt lat="43.45797" lon="6.45244">
        <ele>126</ele>
        <time>2017-09-23T15:41:09Z</time>
      </trkpt>
      <trkpt lat="43.45798" lon="6.45228">
        <ele>125</ele>
        <time>2017-09-23T15:41:11Z</time>
      </trkpt>
      <trkpt lat="43.45799" lon="6.45211">
        <ele>125</ele>
        <time>2017-09-23T15:41:13Z</time>
      </trkpt>
      <trkpt lat="43.45804" lon="6.45179">
        <ele>125</ele>
        <time>2017-09-23T15:41:16Z</time>
      </trkpt>
      <trkpt lat="43.45805" lon="6.45158">
        <ele>124</ele>
        <time>2017-09-23T15:41:18Z</time>
      </trkpt>
      <trkpt lat="43.45808" lon="6.45138">
        <ele>124</ele>
        <time>2017-09-23T15:41:20Z</time>
      </trkpt>
      <trkpt lat="43.45808" lon="6.45119">
        <ele>123</ele>
        <time>2017-09-23T15:41:22Z</time>
      </trkpt>
      <trkpt lat="43.45807" lon="6.45102">
        <ele>123</ele>
        <time>2017-09-23T15:41:24Z</time>
      </trkpt>
      <trkpt lat="43.45807" lon="6.45083">
        <ele>124</ele>
        <time>2017-09-23T15:41:26Z</time>
      </trkpt>
      <trkpt lat="43.45803" lon="6.45066">
        <ele>123</ele>
        <time>2017-09-23T15:41:28Z</time>
      </trkpt>
      <trkpt lat="43.45802" lon="6.45051">
        <ele>123</ele>
        <time>2017-09-23T15:41:30Z</time>
      </trkpt>
      <trkpt lat="43.45802" lon="6.45039">
        <ele>123</ele>
        <time>2017-09-23T15:41:32Z</time>
      </trkpt>
      <trkpt lat="43.45804" lon="6.45011">
        <ele>124</ele>
        <time>2017-09-23T15:41:37Z</time>
      </trkpt>
      <trkpt lat="43.45808" lon="6.44987">
        <ele>125</ele>
        <time>2017-09-23T15:41:41Z</time>
      </trkpt>
      <trkpt lat="43.45811" lon="6.44963">
        <ele>124</ele>
        <time>2017-09-23T15:41:45Z</time>
      </trkpt>
      <trkpt lat="43.45811" lon="6.44949">
        <ele>124</ele>
        <time>2017-09-23T15:41:47Z</time>
      </trkpt>
      <trkpt lat="43.45806" lon="6.44927">
        <ele>125</ele>
        <time>2017-09-23T15:41:51Z</time>
      </trkpt>
      <trkpt lat="43.45799" lon="6.44905">
        <ele>124</ele>
        <time>2017-09-23T15:41:55Z</time>
      </trkpt>
      <trkpt lat="43.45792" lon="6.44893">
        <ele>123</ele>
        <time>2017-09-23T15:41:57Z</time>
      </trkpt>
      <trkpt lat="43.4578" lon="6.44879">
        <ele>122</ele>
        <time>2017-09-23T15:42:00Z</time>
      </trkpt>
      <trkpt lat="43.45769" lon="6.4487">
        <ele>122</ele>
        <time>2017-09-23T15:42:02Z</time>
      </trkpt>
      <trkpt lat="43.45758" lon="6.44862">
        <ele>120</ele>
        <time>2017-09-23T15:42:04Z</time>
      </trkpt>
      <trkpt lat="43.45752" lon="6.44847">
        <ele>118</ele>
        <time>2017-09-23T15:42:06Z</time>
      </trkpt>
      <trkpt lat="43.45749" lon="6.44828">
        <ele>115</ele>
        <time>2017-09-23T15:42:08Z</time>
      </trkpt>
      <trkpt lat="43.45749" lon="6.44813">
        <ele>114</ele>
        <time>2017-09-23T15:42:10Z</time>
      </trkpt>
      <trkpt lat="43.45749" lon="6.44798">
        <ele>115</ele>
        <time>2017-09-23T15:42:12Z</time>
      </trkpt>
      <trkpt lat="43.45748" lon="6.44785">
        <ele>115</ele>
        <time>2017-09-23T15:42:14Z</time>
      </trkpt>
      <trkpt lat="43.45753" lon="6.44762">
        <ele>123</ele>
        <time>2017-09-23T15:42:18Z</time>
      </trkpt>
      <trkpt lat="43.45761" lon="6.44742">
        <ele>127</ele>
        <time>2017-09-23T15:42:23Z</time>
      </trkpt>
      <trkpt lat="43.45766" lon="6.44726">
        <ele>131</ele>
        <time>2017-09-23T15:42:31Z</time>
      </trkpt>
      <trkpt lat="43.45768" lon="6.4471">
        <ele>133</ele>
        <time>2017-09-23T15:42:37Z</time>
      </trkpt>
      <trkpt lat="43.45772" lon="6.44689">
        <ele>134</ele>
        <time>2017-09-23T15:42:44Z</time>
      </trkpt>
      <trkpt lat="43.4577" lon="6.44671">
        <ele>133</ele>
        <time>2017-09-23T15:42:50Z</time>
      </trkpt>
      <trkpt lat="43.45769" lon="6.44654">
        <ele>137</ele>
        <time>2017-09-23T15:42:56Z</time>
      </trkpt>
      <trkpt lat="43.4577" lon="6.44636">
        <ele>139</ele>
        <time>2017-09-23T15:43:03Z</time>
      </trkpt>
      <trkpt lat="43.45769" lon="6.4462">
        <ele>140</ele>
        <time>2017-09-23T15:43:09Z</time>
      </trkpt>
      <trkpt lat="43.45766" lon="6.44606">
        <ele>139</ele>
        <time>2017-09-23T15:43:15Z</time>
      </trkpt>
      <trkpt lat="43.45765" lon="6.44591">
        <ele>137</ele>
        <time>2017-09-23T15:43:21Z</time>
      </trkpt>
      <trkpt lat="43.45765" lon="6.44579">
        <ele>139</ele>
        <time>2017-09-23T15:43:26Z</time>
      </trkpt>
      <trkpt lat="43.45769" lon="6.44562">
        <ele>142</ele>
        <time>2017-09-23T15:43:32Z</time>
      </trkpt>
      <trkpt lat="43.45768" lon="6.44545">
        <ele>143</ele>
        <time>2017-09-23T15:43:38Z</time>
      </trkpt>
      <trkpt lat="43.4577" lon="6.44527">
        <ele>143</ele>
        <time>2017-09-23T15:43:45Z</time>
      </trkpt>
      <trkpt lat="43.45774" lon="6.44512">
        <ele>143</ele>
        <time>2017-09-23T15:43:51Z</time>
      </trkpt>
      <trkpt lat="43.45777" lon="6.44498">
        <ele>142</ele>
        <time>2017-09-23T15:43:55Z</time>
      </trkpt>
      <trkpt lat="43.4578" lon="6.44482">
        <ele>143</ele>
        <time>2017-09-23T15:43:59Z</time>
      </trkpt>
      <trkpt lat="43.45784" lon="6.44459">
        <ele>144</ele>
        <time>2017-09-23T15:44:04Z</time>
      </trkpt>
      <trkpt lat="43.45784" lon="6.44443">
        <ele>144</ele>
        <time>2017-09-23T15:44:08Z</time>
      </trkpt>
      <trkpt lat="43.45785" lon="6.44426">
        <ele>143</ele>
        <time>2017-09-23T15:44:12Z</time>
      </trkpt>
      <trkpt lat="43.45789" lon="6.44411">
        <ele>142</ele>
        <time>2017-09-23T15:44:16Z</time>
      </trkpt>
      <trkpt lat="43.45793" lon="6.44394">
        <ele>142</ele>
        <time>2017-09-23T15:44:20Z</time>
      </trkpt>
      <trkpt lat="43.45799" lon="6.4438">
        <ele>143</ele>
        <time>2017-09-23T15:44:24Z</time>
      </trkpt>
      <trkpt lat="43.45807" lon="6.44359">
        <ele>143</ele>
        <time>2017-09-23T15:44:29Z</time>
      </trkpt>
      <trkpt lat="43.45811" lon="6.44344">
        <ele>144</ele>
        <time>2017-09-23T15:44:33Z</time>
      </trkpt>
      <trkpt lat="43.45816" lon="6.44327">
        <ele>144</ele>
        <time>2017-09-23T15:44:37Z</time>
      </trkpt>
      <trkpt lat="43.45827" lon="6.44299">
        <ele>143</ele>
        <time>2017-09-23T15:44:43Z</time>
      </trkpt>
      <trkpt lat="43.45835" lon="6.4428">
        <ele>155</ele>
        <time>2017-09-23T15:44:47Z</time>
      </trkpt>
      <trkpt lat="43.45843" lon="6.44256">
        <ele>151</ele>
        <time>2017-09-23T15:44:52Z</time>
      </trkpt>
      <trkpt lat="43.45836" lon="6.44234">
        <ele>153</ele>
        <time>2017-09-23T15:44:56Z</time>
      </trkpt>
      <trkpt lat="43.45821" lon="6.44226">
        <ele>150</ele>
        <time>2017-09-23T15:45:00Z</time>
      </trkpt>
      <trkpt lat="43.45806" lon="6.44222">
        <ele>150</ele>
        <time>2017-09-23T15:45:04Z</time>
      </trkpt>
      <trkpt lat="43.45793" lon="6.44218">
        <ele>150</ele>
        <time>2017-09-23T15:45:08Z</time>
      </trkpt>
      <trkpt lat="43.45777" lon="6.44215">
        <ele>149</ele>
        <time>2017-09-23T15:45:12Z</time>
      </trkpt>
      <trkpt lat="43.45765" lon="6.44216">
        <ele>148</ele>
        <time>2017-09-23T15:45:17Z</time>
      </trkpt>
      <trkpt lat="43.45754" lon="6.44215">
        <ele>148</ele>
        <time>2017-09-23T15:45:21Z</time>
      </trkpt>
      <trkpt lat="43.45742" lon="6.44213">
        <ele>140</ele>
        <time>2017-09-23T15:45:25Z</time>
      </trkpt>
      <trkpt lat="43.45732" lon="6.44207">
        <ele>141</ele>
        <time>2017-09-23T15:45:29Z</time>
      </trkpt>
      <trkpt lat="43.45738" lon="6.44194">
        <ele>144</ele>
        <time>2017-09-23T15:45:33Z</time>
      </trkpt>
      <trkpt lat="43.45748" lon="6.44197">
        <ele>144</ele>
        <time>2017-09-23T15:45:36Z</time>
      </trkpt>
      <trkpt lat="43.4576" lon="6.442">
        <ele>151</ele>
        <time>2017-09-23T15:45:40Z</time>
      </trkpt>
      <trkpt lat="43.45772" lon="6.44199">
        <ele>151</ele>
        <time>2017-09-23T15:45:44Z</time>
      </trkpt>
      <trkpt lat="43.45781" lon="6.44195">
        <ele>152</ele>
        <time>2017-09-23T15:45:48Z</time>
      </trkpt>
      <trkpt lat="43.45793" lon="6.44189">
        <ele>153</ele>
        <time>2017-09-23T15:45:54Z</time>
      </trkpt>
      <trkpt lat="43.45807" lon="6.44185">
        <ele>154</ele>
        <time>2017-09-23T15:46:01Z</time>
      </trkpt>
      <trkpt lat="43.45818" lon="6.4418">
        <ele>156</ele>
        <time>2017-09-23T15:46:07Z</time>
      </trkpt>
      <trkpt lat="43.45829" lon="6.44178">
        <ele>159</ele>
        <time>2017-09-23T15:46:13Z</time>
      </trkpt>
      <trkpt lat="43.45839" lon="6.44169">
        <ele>162</ele>
        <time>2017-09-23T15:46:19Z</time>
      </trkpt>
      <trkpt lat="43.45848" lon="6.44156">
        <ele>169</ele>
        <time>2017-09-23T15:46:26Z</time>
      </trkpt>
      <trkpt lat="43.45858" lon="6.44146">
        <ele>171</ele>
        <time>2017-09-23T15:46:32Z</time>
      </trkpt>
      <trkpt lat="43.45868" lon="6.44142">
        <ele>172</ele>
        <time>2017-09-23T15:46:38Z</time>
      </trkpt>
      <trkpt lat="43.45878" lon="6.44136">
        <ele>172</ele>
        <time>2017-09-23T15:46:44Z</time>
      </trkpt>
      <trkpt lat="43.45887" lon="6.44128">
        <ele>173</ele>
        <time>2017-09-23T15:46:49Z</time>
      </trkpt>
      <trkpt lat="43.45898" lon="6.44121">
        <ele>173</ele>
        <time>2017-09-23T15:46:55Z</time>
      </trkpt>
      <trkpt lat="43.45903" lon="6.4411">
        <ele>174</ele>
        <time>2017-09-23T15:47:01Z</time>
      </trkpt>
      <trkpt lat="43.4591" lon="6.44098">
        <ele>174</ele>
        <time>2017-09-23T15:47:07Z</time>
      </trkpt>
      <trkpt lat="43.45916" lon="6.44089">
        <ele>175</ele>
        <time>2017-09-23T15:47:12Z</time>
      </trkpt>
      <trkpt lat="43.45925" lon="6.44078">
        <ele>177</ele>
        <time>2017-09-23T15:47:18Z</time>
      </trkpt>
      <trkpt lat="43.45933" lon="6.44067">
        <ele>180</ele>
        <time>2017-09-23T15:47:24Z</time>
      </trkpt>
      <trkpt lat="43.45942" lon="6.44056">
        <ele>181</ele>
        <time>2017-09-23T15:47:30Z</time>
      </trkpt>
      <trkpt lat="43.45953" lon="6.44043">
        <ele>182</ele>
        <time>2017-09-23T15:47:37Z</time>
      </trkpt>
      <trkpt lat="43.45958" lon="6.44028">
        <ele>183</ele>
        <time>2017-09-23T15:47:43Z</time>
      </trkpt>
      <trkpt lat="43.45964" lon="6.44012">
        <ele>183</ele>
        <time>2017-09-23T15:47:49Z</time>
      </trkpt>
      <trkpt lat="43.4597" lon="6.44">
        <ele>183</ele>
        <time>2017-09-23T15:47:55Z</time>
      </trkpt>
      <trkpt lat="43.45977" lon="6.43991">
        <ele>187</ele>
        <time>2017-09-23T15:48:00Z</time>
      </trkpt>
      <trkpt lat="43.45982" lon="6.43979">
        <ele>188</ele>
        <time>2017-09-23T15:48:06Z</time>
      </trkpt>
      <trkpt lat="43.45987" lon="6.43965">
        <ele>189</ele>
        <time>2017-09-23T15:48:12Z</time>
      </trkpt>
      <trkpt lat="43.45989" lon="6.43946">
        <ele>189</ele>
        <time>2017-09-23T15:48:19Z</time>
      </trkpt>
      <trkpt lat="43.4599" lon="6.4393">
        <ele>189</ele>
        <time>2017-09-23T15:48:25Z</time>
      </trkpt>
      <trkpt lat="43.45995" lon="6.43914">
        <ele>189</ele>
        <time>2017-09-23T15:48:32Z</time>
      </trkpt>
      <trkpt lat="43.46005" lon="6.43905">
        <ele>189</ele>
        <time>2017-09-23T15:48:38Z</time>
      </trkpt>
      <trkpt lat="43.46013" lon="6.439">
        <ele>190</ele>
        <time>2017-09-23T15:48:42Z</time>
      </trkpt>
      <trkpt lat="43.46023" lon="6.43894">
        <ele>191</ele>
        <time>2017-09-23T15:48:48Z</time>
      </trkpt>
      <trkpt lat="43.46032" lon="6.43882">
        <ele>192</ele>
        <time>2017-09-23T15:48:55Z</time>
      </trkpt>
      <trkpt lat="43.46039" lon="6.43871">
        <ele>192</ele>
        <time>2017-09-23T15:49:01Z</time>
      </trkpt>
      <trkpt lat="43.46044" lon="6.4386">
        <ele>193</ele>
        <time>2017-09-23T15:49:07Z</time>
      </trkpt>
      <trkpt lat="43.4605" lon="6.43845">
        <ele>193</ele>
        <time>2017-09-23T15:49:14Z</time>
      </trkpt>
      <trkpt lat="43.46056" lon="6.43831">
        <ele>197</ele>
        <time>2017-09-23T15:49:20Z</time>
      </trkpt>
      <trkpt lat="43.46062" lon="6.43817">
        <ele>197</ele>
        <time>2017-09-23T15:49:26Z</time>
      </trkpt>
      <trkpt lat="43.46068" lon="6.43805">
        <ele>198</ele>
        <time>2017-09-23T15:49:32Z</time>
      </trkpt>
      <trkpt lat="43.46073" lon="6.43794">
        <ele>198</ele>
        <time>2017-09-23T15:49:37Z</time>
      </trkpt>
      <trkpt lat="43.46079" lon="6.43778">
        <ele>199</ele>
        <time>2017-09-23T15:49:43Z</time>
      </trkpt>
      <trkpt lat="43.46085" lon="6.43765">
        <ele>200</ele>
        <time>2017-09-23T15:49:49Z</time>
      </trkpt>
      <trkpt lat="43.46095" lon="6.43754">
        <ele>200</ele>
        <time>2017-09-23T15:49:55Z</time>
      </trkpt>
      <trkpt lat="43.46105" lon="6.43746">
        <ele>203</ele>
        <time>2017-09-23T15:50:02Z</time>
      </trkpt>
      <trkpt lat="43.46114" lon="6.43738">
        <ele>204</ele>
        <time>2017-09-23T15:50:08Z</time>
      </trkpt>
      <trkpt lat="43.46127" lon="6.43735">
        <ele>205</ele>
        <time>2017-09-23T15:50:14Z</time>
      </trkpt>
      <trkpt lat="43.46138" lon="6.43742">
        <ele>205</ele>
        <time>2017-09-23T15:50:19Z</time>
      </trkpt>
      <trkpt lat="43.46146" lon="6.43753">
        <ele>202</ele>
        <time>2017-09-23T15:50:25Z</time>
      </trkpt>
      <trkpt lat="43.46155" lon="6.43763">
        <ele>202</ele>
        <time>2017-09-23T15:50:31Z</time>
      </trkpt>
      <trkpt lat="43.46162" lon="6.43771">
        <ele>202</ele>
        <time>2017-09-23T15:50:36Z</time>
      </trkpt>
      <trkpt lat="43.46169" lon="6.43783">
        <ele>203</ele>
        <time>2017-09-23T15:50:42Z</time>
      </trkpt>
      <trkpt lat="43.46176" lon="6.43796">
        <ele>203</ele>
        <time>2017-09-23T15:50:48Z</time>
      </trkpt>
      <trkpt lat="43.46184" lon="6.43804">
        <ele>203</ele>
        <time>2017-09-23T15:50:55Z</time>
      </trkpt>
      <trkpt lat="43.46196" lon="6.438">
        <ele>203</ele>
        <time>2017-09-23T15:51:03Z</time>
      </trkpt>
      <trkpt lat="43.46198" lon="6.43815">
        <ele>203</ele>
        <time>2017-09-23T15:51:09Z</time>
      </trkpt>
      <trkpt lat="43.46195" lon="6.43827">
        <ele>203</ele>
        <time>2017-09-23T15:51:14Z</time>
      </trkpt>
      <trkpt lat="43.46193" lon="6.43842">
        <ele>204</ele>
        <time>2017-09-23T15:51:20Z</time>
      </trkpt>
      <trkpt lat="43.46188" lon="6.43856">
        <ele>204</ele>
        <time>2017-09-23T15:51:26Z</time>
      </trkpt>
      <trkpt lat="43.46184" lon="6.43869">
        <ele>204</ele>
        <time>2017-09-23T15:51:32Z</time>
      </trkpt>
      <trkpt lat="43.46179" lon="6.43886">
        <ele>205</ele>
        <time>2017-09-23T15:51:39Z</time>
      </trkpt>
      <trkpt lat="43.46177" lon="6.439">
        <ele>206</ele>
        <time>2017-09-23T15:51:45Z</time>
      </trkpt>
      <trkpt lat="43.46174" lon="6.43915">
        <ele>207</ele>
        <time>2017-09-23T15:51:51Z</time>
      </trkpt>
      <trkpt lat="43.46173" lon="6.4393">
        <ele>208</ele>
        <time>2017-09-23T15:51:56Z</time>
      </trkpt>
      <trkpt lat="43.4617" lon="6.43942">
        <ele>209</ele>
        <time>2017-09-23T15:52:00Z</time>
      </trkpt>
      <trkpt lat="43.46166" lon="6.43958">
        <ele>206</ele>
        <time>2017-09-23T15:52:06Z</time>
      </trkpt>
      <trkpt lat="43.46163" lon="6.43975">
        <ele>208</ele>
        <time>2017-09-23T15:52:12Z</time>
      </trkpt>
      <trkpt lat="43.46159" lon="6.4399">
        <ele>210</ele>
        <time>2017-09-23T15:52:17Z</time>
      </trkpt>
      <trkpt lat="43.46155" lon="6.44003">
        <ele>212</ele>
        <time>2017-09-23T15:52:21Z</time>
      </trkpt>
      <trkpt lat="43.46152" lon="6.44016">
        <ele>211</ele>
        <time>2017-09-23T15:52:25Z</time>
      </trkpt>
      <trkpt lat="43.46145" lon="6.44033">
        <ele>210</ele>
        <time>2017-09-23T15:52:31Z</time>
      </trkpt>
      <trkpt lat="43.4614" lon="6.44046">
        <ele>210</ele>
        <time>2017-09-23T15:52:34Z</time>
      </trkpt>
      <trkpt lat="43.46135" lon="6.4406">
        <ele>210</ele>
        <time>2017-09-23T15:52:38Z</time>
      </trkpt>
      <trkpt lat="43.4613" lon="6.44073">
        <ele>210</ele>
        <time>2017-09-23T15:52:42Z</time>
      </trkpt>
      <trkpt lat="43.46128" lon="6.44086">
        <ele>213</ele>
        <time>2017-09-23T15:52:46Z</time>
      </trkpt>
      <trkpt lat="43.4613" lon="6.44104">
        <ele>213</ele>
        <time>2017-09-23T15:52:52Z</time>
      </trkpt>
      <trkpt lat="43.4613" lon="6.44118">
        <ele>213</ele>
        <time>2017-09-23T15:52:57Z</time>
      </trkpt>
      <trkpt lat="43.46125" lon="6.44128">
        <ele>213</ele>
        <time>2017-09-23T15:53:01Z</time>
      </trkpt>
      <trkpt lat="43.46119" lon="6.4414">
        <ele>213</ele>
        <time>2017-09-23T15:53:05Z</time>
      </trkpt>
      <trkpt lat="43.46118" lon="6.44154">
        <ele>213</ele>
        <time>2017-09-23T15:53:11Z</time>
      </trkpt>
      <trkpt lat="43.46108" lon="6.44172">
        <ele>215</ele>
        <time>2017-09-23T15:53:16Z</time>
      </trkpt>
      <trkpt lat="43.46102" lon="6.44185">
        <ele>215</ele>
        <time>2017-09-23T15:53:20Z</time>
      </trkpt>
      <trkpt lat="43.46096" lon="6.44196">
        <ele>215</ele>
        <time>2017-09-23T15:53:24Z</time>
      </trkpt>
      <trkpt lat="43.46092" lon="6.44214">
        <ele>216</ele>
        <time>2017-09-23T15:53:30Z</time>
      </trkpt>
      <trkpt lat="43.46089" lon="6.44225">
        <ele>217</ele>
        <time>2017-09-23T15:53:35Z</time>
      </trkpt>
      <trkpt lat="43.46084" lon="6.44237">
        <ele>218</ele>
        <time>2017-09-23T15:53:39Z</time>
      </trkpt>
      <trkpt lat="43.46081" lon="6.44251">
        <ele>218</ele>
        <time>2017-09-23T15:53:45Z</time>
      </trkpt>
      <trkpt lat="43.46076" lon="6.44265">
        <ele>216</ele>
        <time>2017-09-23T15:53:52Z</time>
      </trkpt>
      <trkpt lat="43.46071" lon="6.44279">
        <ele>215</ele>
        <time>2017-09-23T15:53:58Z</time>
      </trkpt>
      <trkpt lat="43.46065" lon="6.44295">
        <ele>216</ele>
        <time>2017-09-23T15:54:04Z</time>
      </trkpt>
      <trkpt lat="43.4606" lon="6.44309">
        <ele>216</ele>
        <time>2017-09-23T15:54:10Z</time>
      </trkpt>
      <trkpt lat="43.46054" lon="6.44323">
        <ele>216</ele>
        <time>2017-09-23T15:54:15Z</time>
      </trkpt>
      <trkpt lat="43.46052" lon="6.44335">
        <ele>220</ele>
        <time>2017-09-23T15:54:19Z</time>
      </trkpt>
      <trkpt lat="43.46049" lon="6.44352">
        <ele>220</ele>
        <time>2017-09-23T15:54:25Z</time>
      </trkpt>
      <trkpt lat="43.46047" lon="6.44369">
        <ele>220</ele>
        <time>2017-09-23T15:54:31Z</time>
      </trkpt>
      <trkpt lat="43.46046" lon="6.44383">
        <ele>220</ele>
        <time>2017-09-23T15:54:36Z</time>
      </trkpt>
      <trkpt lat="43.46043" lon="6.444">
        <ele>220</ele>
        <time>2017-09-23T15:54:42Z</time>
      </trkpt>
      <trkpt lat="43.4604" lon="6.44415">
        <ele>220</ele>
        <time>2017-09-23T15:54:48Z</time>
      </trkpt>
      <trkpt lat="43.46036" lon="6.44427">
        <ele>223</ele>
        <time>2017-09-23T15:54:53Z</time>
      </trkpt>
      <trkpt lat="43.46029" lon="6.44443">
        <ele>223</ele>
        <time>2017-09-23T15:54:57Z</time>
      </trkpt>
      <trkpt lat="43.46023" lon="6.44458">
        <ele>223</ele>
        <time>2017-09-23T15:55:01Z</time>
      </trkpt>
      <trkpt lat="43.46017" lon="6.44478">
        <ele>224</ele>
        <time>2017-09-23T15:55:05Z</time>
      </trkpt>
      <trkpt lat="43.46019" lon="6.44503">
        <ele>225</ele>
        <time>2017-09-23T15:55:09Z</time>
      </trkpt>
      <trkpt lat="43.46027" lon="6.44524">
        <ele>224</ele>
        <time>2017-09-23T15:55:13Z</time>
      </trkpt>
      <trkpt lat="43.46038" lon="6.44546">
        <ele>224</ele>
        <time>2017-09-23T15:55:16Z</time>
      </trkpt>
      <trkpt lat="43.46045" lon="6.44565">
        <ele>223</ele>
        <time>2017-09-23T15:55:18Z</time>
      </trkpt>
      <trkpt lat="43.46046" lon="6.44585">
        <ele>219</ele>
        <time>2017-09-23T15:55:20Z</time>
      </trkpt>
      <trkpt lat="43.46046" lon="6.44604">
        <ele>218</ele>
        <time>2017-09-23T15:55:22Z</time>
      </trkpt>
      <trkpt lat="43.46049" lon="6.44623">
        <ele>218</ele>
        <time>2017-09-23T15:55:24Z</time>
      </trkpt>
      <trkpt lat="43.46055" lon="6.44642">
        <ele>217</ele>
        <time>2017-09-23T15:55:26Z</time>
      </trkpt>
      <trkpt lat="43.46059" lon="6.44659">
        <ele>217</ele>
        <time>2017-09-23T15:55:28Z</time>
      </trkpt>
      <trkpt lat="43.46063" lon="6.44676">
        <ele>214</ele>
        <time>2017-09-23T15:55:30Z</time>
      </trkpt>
      <trkpt lat="43.46065" lon="6.44693">
        <ele>214</ele>
        <time>2017-09-23T15:55:32Z</time>
      </trkpt>
      <trkpt lat="43.46069" lon="6.44716">
        <ele>213</ele>
        <time>2017-09-23T15:55:35Z</time>
      </trkpt>
      <trkpt lat="43.4607" lon="6.44732">
        <ele>214</ele>
        <time>2017-09-23T15:55:37Z</time>
      </trkpt>
      <trkpt lat="43.46074" lon="6.44747">
        <ele>216</ele>
        <time>2017-09-23T15:55:39Z</time>
      </trkpt>
      <trkpt lat="43.46078" lon="6.44763">
        <ele>213</ele>
        <time>2017-09-23T15:55:41Z</time>
      </trkpt>
      <trkpt lat="43.4608" lon="6.4478">
        <ele>211</ele>
        <time>2017-09-23T15:55:43Z</time>
      </trkpt>
      <trkpt lat="43.46084" lon="6.44793">
        <ele>215</ele>
        <time>2017-09-23T15:55:45Z</time>
      </trkpt>
      <trkpt lat="43.4609" lon="6.44805">
        <ele>214</ele>
        <time>2017-09-23T15:55:47Z</time>
      </trkpt>
      <trkpt lat="43.46094" lon="6.44819">
        <ele>213</ele>
        <time>2017-09-23T15:55:49Z</time>
      </trkpt>
      <trkpt lat="43.46096" lon="6.44831">
        <ele>213</ele>
        <time>2017-09-23T15:55:51Z</time>
      </trkpt>
      <trkpt lat="43.461" lon="6.44843">
        <ele>212</ele>
        <time>2017-09-23T15:55:53Z</time>
      </trkpt>
      <trkpt lat="43.46104" lon="6.44862">
        <ele>211</ele>
        <time>2017-09-23T15:55:56Z</time>
      </trkpt>
      <trkpt lat="43.46106" lon="6.44877">
        <ele>210</ele>
        <time>2017-09-23T15:55:58Z</time>
      </trkpt>
      <trkpt lat="43.46111" lon="6.4489">
        <ele>210</ele>
        <time>2017-09-23T15:56:00Z</time>
      </trkpt>
      <trkpt lat="43.46114" lon="6.44903">
        <ele>210</ele>
        <time>2017-09-23T15:56:02Z</time>
      </trkpt>
      <trkpt lat="43.46115" lon="6.44918">
        <ele>208</ele>
        <time>2017-09-23T15:56:04Z</time>
      </trkpt>
      <trkpt lat="43.46118" lon="6.44932">
        <ele>208</ele>
        <time>2017-09-23T15:56:06Z</time>
      </trkpt>
      <trkpt lat="43.4612" lon="6.44945">
        <ele>208</ele>
        <time>2017-09-23T15:56:08Z</time>
      </trkpt>
      <trkpt lat="43.46121" lon="6.44959">
        <ele>208</ele>
        <time>2017-09-23T15:56:10Z</time>
      </trkpt>
      <trkpt lat="43.46121" lon="6.44973">
        <ele>208</ele>
        <time>2017-09-23T15:56:12Z</time>
      </trkpt>
      <trkpt lat="43.46121" lon="6.44995">
        <ele>207</ele>
        <time>2017-09-23T15:56:15Z</time>
      </trkpt>
      <trkpt lat="43.46122" lon="6.45008">
        <ele>208</ele>
        <time>2017-09-23T15:56:17Z</time>
      </trkpt>
      <trkpt lat="43.46125" lon="6.45031">
        <ele>208</ele>
        <time>2017-09-23T15:56:21Z</time>
      </trkpt>
      <trkpt lat="43.46125" lon="6.45054">
        <ele>208</ele>
        <time>2017-09-23T15:56:25Z</time>
      </trkpt>
      <trkpt lat="43.46122" lon="6.45073">
        <ele>208</ele>
        <time>2017-09-23T15:56:29Z</time>
      </trkpt>
      <trkpt lat="43.46116" lon="6.45088">
        <ele>210</ele>
        <time>2017-09-23T15:56:34Z</time>
      </trkpt>
      <trkpt lat="43.46112" lon="6.451">
        <ele>210</ele>
        <time>2017-09-23T15:56:38Z</time>
      </trkpt>
      <trkpt lat="43.4611" lon="6.45116">
        <ele>211</ele>
        <time>2017-09-23T15:56:44Z</time>
      </trkpt>
      <trkpt lat="43.46107" lon="6.45133">
        <ele>212</ele>
        <time>2017-09-23T15:56:50Z</time>
      </trkpt>
      <trkpt lat="43.46103" lon="6.45148">
        <ele>212</ele>
        <time>2017-09-23T15:56:57Z</time>
      </trkpt>
      <trkpt lat="43.46097" lon="6.4516">
        <ele>212</ele>
        <time>2017-09-23T15:57:01Z</time>
      </trkpt>
      <trkpt lat="43.46092" lon="6.45175">
        <ele>214</ele>
        <time>2017-09-23T15:57:07Z</time>
      </trkpt>
      <trkpt lat="43.46085" lon="6.45191">
        <ele>214</ele>
        <time>2017-09-23T15:57:13Z</time>
      </trkpt>
      <trkpt lat="43.46076" lon="6.45204">
        <ele>209</ele>
        <time>2017-09-23T15:57:18Z</time>
      </trkpt>
      <trkpt lat="43.4607" lon="6.45215">
        <ele>209</ele>
        <time>2017-09-23T15:57:22Z</time>
      </trkpt>
      <trkpt lat="43.46065" lon="6.45228">
        <ele>210</ele>
        <time>2017-09-23T15:57:26Z</time>
      </trkpt>
      <trkpt lat="43.46062" lon="6.45244">
        <ele>211</ele>
        <time>2017-09-23T15:57:30Z</time>
      </trkpt>
      <trkpt lat="43.4606" lon="6.45263">
        <ele>213</ele>
        <time>2017-09-23T15:57:34Z</time>
      </trkpt>
      <trkpt lat="43.4605" lon="6.45274">
        <ele>212</ele>
        <time>2017-09-23T15:57:41Z</time>
      </trkpt>
      <trkpt lat="43.46041" lon="6.45286">
        <ele>211</ele>
        <time>2017-09-23T15:57:45Z</time>
      </trkpt>
      <trkpt lat="43.46034" lon="6.45307">
        <ele>211</ele>
        <time>2017-09-23T15:57:49Z</time>
      </trkpt>
      <trkpt lat="43.46024" lon="6.45327">
        <ele>211</ele>
        <time>2017-09-23T15:57:53Z</time>
      </trkpt>
      <trkpt lat="43.46022" lon="6.45342">
        <ele>213</ele>
        <time>2017-09-23T15:57:58Z</time>
      </trkpt>
      <trkpt lat="43.4602" lon="6.45358">
        <ele>213</ele>
        <time>2017-09-23T15:58:04Z</time>
      </trkpt>
      <trkpt lat="43.46013" lon="6.45371">
        <ele>213</ele>
        <time>2017-09-23T15:58:08Z</time>
      </trkpt>
      <trkpt lat="43.46008" lon="6.45384">
        <ele>214</ele>
        <time>2017-09-23T15:58:12Z</time>
      </trkpt>
      <trkpt lat="43.46006" lon="6.454">
        <ele>214</ele>
        <time>2017-09-23T15:58:17Z</time>
      </trkpt>
      <trkpt lat="43.46005" lon="6.45413">
        <ele>213</ele>
        <time>2017-09-23T15:58:19Z</time>
      </trkpt>
      <trkpt lat="43.46011" lon="6.45429">
        <ele>214</ele>
        <time>2017-09-23T15:58:25Z</time>
      </trkpt>
      <trkpt lat="43.46012" lon="6.45442">
        <ele>215</ele>
        <time>2017-09-23T15:58:29Z</time>
      </trkpt>
      <trkpt lat="43.4601" lon="6.45455">
        <ele>215</ele>
        <time>2017-09-23T15:58:33Z</time>
      </trkpt>
      <trkpt lat="43.46008" lon="6.45468">
        <ele>215</ele>
        <time>2017-09-23T15:58:37Z</time>
      </trkpt>
      <trkpt lat="43.4601" lon="6.45488">
        <ele>214</ele>
        <time>2017-09-23T15:58:42Z</time>
      </trkpt>
      <trkpt lat="43.46012" lon="6.45504">
        <ele>214</ele>
        <time>2017-09-23T15:58:46Z</time>
      </trkpt>
      <trkpt lat="43.46014" lon="6.45521">
        <ele>215</ele>
        <time>2017-09-23T15:58:50Z</time>
      </trkpt>
      <trkpt lat="43.46027" lon="6.4552">
        <ele>215</ele>
        <time>2017-09-23T15:58:56Z</time>
      </trkpt>
      <trkpt lat="43.46037" lon="6.45527">
        <ele>216</ele>
        <time>2017-09-23T15:59:01Z</time>
      </trkpt>
      <trkpt lat="43.46038" lon="6.45544">
        <ele>216</ele>
        <time>2017-09-23T15:59:05Z</time>
      </trkpt>
      <trkpt lat="43.46039" lon="6.45559">
        <ele>215</ele>
        <time>2017-09-23T15:59:09Z</time>
      </trkpt>
      <trkpt lat="43.46039" lon="6.45575">
        <ele>215</ele>
        <time>2017-09-23T15:59:13Z</time>
      </trkpt>
      <trkpt lat="43.4604" lon="6.45591">
        <ele>215</ele>
        <time>2017-09-23T15:59:17Z</time>
      </trkpt>
      <trkpt lat="43.46039" lon="6.45604">
        <ele>214</ele>
        <time>2017-09-23T15:59:21Z</time>
      </trkpt>
      <trkpt lat="43.46041" lon="6.45621">
        <ele>214</ele>
        <time>2017-09-23T15:59:26Z</time>
      </trkpt>
      <trkpt lat="43.46042" lon="6.45635">
        <ele>214</ele>
        <time>2017-09-23T15:59:30Z</time>
      </trkpt>
      <trkpt lat="43.46043" lon="6.45654">
        <ele>214</ele>
        <time>2017-09-23T15:59:36Z</time>
      </trkpt>
      <trkpt lat="43.46042" lon="6.45668">
        <ele>215</ele>
        <time>2017-09-23T15:59:41Z</time>
      </trkpt>
      <trkpt lat="43.46045" lon="6.45686">
        <ele>215</ele>
        <time>2017-09-23T15:59:45Z</time>
      </trkpt>
      <trkpt lat="43.46046" lon="6.45703">
        <ele>215</ele>
        <time>2017-09-23T15:59:49Z</time>
      </trkpt>
      <trkpt lat="43.46044" lon="6.45719">
        <ele>215</ele>
        <time>2017-09-23T15:59:53Z</time>
      </trkpt>
      <trkpt lat="43.46039" lon="6.45731">
        <ele>215</ele>
        <time>2017-09-23T15:59:57Z</time>
      </trkpt>
      <trkpt lat="43.46037" lon="6.45745">
        <ele>215</ele>
        <time>2017-09-23T16:00:02Z</time>
      </trkpt>
      <trkpt lat="43.46033" lon="6.45762">
        <ele>216</ele>
        <time>2017-09-23T16:00:08Z</time>
      </trkpt>
      <trkpt lat="43.46033" lon="6.45781">
        <ele>217</ele>
        <time>2017-09-23T16:00:14Z</time>
      </trkpt>
      <trkpt lat="43.46034" lon="6.45802">
        <ele>217</ele>
        <time>2017-09-23T16:00:19Z</time>
      </trkpt>
      <trkpt lat="43.46033" lon="6.45818">
        <ele>217</ele>
        <time>2017-09-23T16:00:23Z</time>
      </trkpt>
      <trkpt lat="43.46031" lon="6.45834">
        <ele>219</ele>
        <time>2017-09-23T16:00:27Z</time>
      </trkpt>
      <trkpt lat="43.46025" lon="6.45847">
        <ele>219</ele>
        <time>2017-09-23T16:00:31Z</time>
      </trkpt>
      <trkpt lat="43.4602" lon="6.45863">
        <ele>219</ele>
        <time>2017-09-23T16:00:35Z</time>
      </trkpt>
      <trkpt lat="43.46016" lon="6.45875">
        <ele>219</ele>
        <time>2017-09-23T16:00:38Z</time>
      </trkpt>
      <trkpt lat="43.46015" lon="6.45892">
        <ele>219</ele>
        <time>2017-09-23T16:00:42Z</time>
      </trkpt>
      <trkpt lat="43.46021" lon="6.45912">
        <ele>219</ele>
        <time>2017-09-23T16:00:46Z</time>
      </trkpt>
      <trkpt lat="43.46029" lon="6.45934">
        <ele>219</ele>
        <time>2017-09-23T16:00:50Z</time>
      </trkpt>
      <trkpt lat="43.46038" lon="6.45955">
        <ele>219</ele>
        <time>2017-09-23T16:00:54Z</time>
      </trkpt>
      <trkpt lat="43.46041" lon="6.45972">
        <ele>219</ele>
        <time>2017-09-23T16:00:59Z</time>
      </trkpt>
      <trkpt lat="43.46038" lon="6.45986">
        <ele>219</ele>
        <time>2017-09-23T16:01:01Z</time>
      </trkpt>
      <trkpt lat="43.46034" lon="6.46004">
        <ele>218</ele>
        <time>2017-09-23T16:01:05Z</time>
      </trkpt>
      <trkpt lat="43.46031" lon="6.46023">
        <ele>218</ele>
        <time>2017-09-23T16:01:09Z</time>
      </trkpt>
      <trkpt lat="43.4603" lon="6.46044">
        <ele>217</ele>
        <time>2017-09-23T16:01:13Z</time>
      </trkpt>
      <trkpt lat="43.46031" lon="6.46056">
        <ele>217</ele>
        <time>2017-09-23T16:01:15Z</time>
      </trkpt>
      <trkpt lat="43.46029" lon="6.46075">
        <ele>216</ele>
        <time>2017-09-23T16:01:19Z</time>
      </trkpt>
      <trkpt lat="43.4603" lon="6.46098">
        <ele>214</ele>
        <time>2017-09-23T16:01:24Z</time>
      </trkpt>
      <trkpt lat="43.46043" lon="6.46108">
        <ele>215</ele>
        <time>2017-09-23T16:01:28Z</time>
      </trkpt>
      <trkpt lat="43.46049" lon="6.46124">
        <ele>215</ele>
        <time>2017-09-23T16:01:32Z</time>
      </trkpt>
      <trkpt lat="43.46045" lon="6.46144">
        <ele>215</ele>
        <time>2017-09-23T16:01:36Z</time>
      </trkpt>
      <trkpt lat="43.46047" lon="6.46169">
        <ele>211</ele>
        <time>2017-09-23T16:01:41Z</time>
      </trkpt>
      <trkpt lat="43.46047" lon="6.4619">
        <ele>211</ele>
        <time>2017-09-23T16:01:45Z</time>
      </trkpt>
      <trkpt lat="43.46047" lon="6.46211">
        <ele>210</ele>
        <time>2017-09-23T16:01:49Z</time>
      </trkpt>
      <trkpt lat="43.46049" lon="6.46233">
        <ele>210</ele>
        <time>2017-09-23T16:01:53Z</time>
      </trkpt>
      <trkpt lat="43.46052" lon="6.46253">
        <ele>207</ele>
        <time>2017-09-23T16:01:57Z</time>
      </trkpt>
      <trkpt lat="43.46053" lon="6.46274">
        <ele>207</ele>
        <time>2017-09-23T16:02:01Z</time>
      </trkpt>
      <trkpt lat="43.46055" lon="6.46288">
        <ele>206</ele>
        <time>2017-09-23T16:02:04Z</time>
      </trkpt>
      <trkpt lat="43.46059" lon="6.46308">
        <ele>207</ele>
        <time>2017-09-23T16:02:08Z</time>
      </trkpt>
      <trkpt lat="43.46061" lon="6.46326">
        <ele>208</ele>
        <time>2017-09-23T16:02:12Z</time>
      </trkpt>
      <trkpt lat="43.46064" lon="6.46343">
        <ele>207</ele>
        <time>2017-09-23T16:02:16Z</time>
      </trkpt>
      <trkpt lat="43.46072" lon="6.4635">
        <ele>208</ele>
        <time>2017-09-23T16:02:20Z</time>
      </trkpt>
      <trkpt lat="43.46085" lon="6.46348">
        <ele>213</ele>
        <time>2017-09-23T16:02:24Z</time>
      </trkpt>
      <trkpt lat="43.46095" lon="6.46353">
        <ele>212</ele>
        <time>2017-09-23T16:02:31Z</time>
      </trkpt>
      <trkpt lat="43.46108" lon="6.46363">
        <ele>212</ele>
        <time>2017-09-23T16:02:37Z</time>
      </trkpt>
      <trkpt lat="43.46121" lon="6.46361">
        <ele>211</ele>
        <time>2017-09-23T16:02:41Z</time>
      </trkpt>
      <trkpt lat="43.46135" lon="6.46354">
        <ele>211</ele>
        <time>2017-09-23T16:02:45Z</time>
      </trkpt>
      <trkpt lat="43.46148" lon="6.46347">
        <ele>210</ele>
        <time>2017-09-23T16:02:50Z</time>
      </trkpt>
      <trkpt lat="43.46156" lon="6.46344">
        <ele>209</ele>
        <time>2017-09-23T16:02:54Z</time>
      </trkpt>
      <trkpt lat="43.46168" lon="6.46341">
        <ele>206</ele>
        <time>2017-09-23T16:03:00Z</time>
      </trkpt>
      <trkpt lat="43.46177" lon="6.46341">
        <ele>205</ele>
        <time>2017-09-23T16:03:04Z</time>
      </trkpt>
      <trkpt lat="43.4619" lon="6.46337">
        <ele>203</ele>
        <time>2017-09-23T16:03:09Z</time>
      </trkpt>
      <trkpt lat="43.46199" lon="6.46332">
        <ele>202</ele>
        <time>2017-09-23T16:03:11Z</time>
      </trkpt>
      <trkpt lat="43.46207" lon="6.46326">
        <ele>201</ele>
        <time>2017-09-23T16:03:15Z</time>
      </trkpt>
      <trkpt lat="43.46217" lon="6.46321">
        <ele>200</ele>
        <time>2017-09-23T16:03:19Z</time>
      </trkpt>
      <trkpt lat="43.46227" lon="6.46315">
        <ele>199</ele>
        <time>2017-09-23T16:03:23Z</time>
      </trkpt>
      <trkpt lat="43.46236" lon="6.46313">
        <ele>198</ele>
        <time>2017-09-23T16:03:27Z</time>
      </trkpt>
      <trkpt lat="43.46246" lon="6.46312">
        <ele>197</ele>
        <time>2017-09-23T16:03:31Z</time>
      </trkpt>
      <trkpt lat="43.46261" lon="6.4631">
        <ele>188</ele>
        <time>2017-09-23T16:03:36Z</time>
      </trkpt>
      <trkpt lat="43.46273" lon="6.46318">
        <ele>187</ele>
        <time>2017-09-23T16:03:40Z</time>
      </trkpt>
      <trkpt lat="43.46289" lon="6.46319">
        <ele>185</ele>
        <time>2017-09-23T16:03:44Z</time>
      </trkpt>
      <trkpt lat="43.46303" lon="6.46319">
        <ele>183</ele>
        <time>2017-09-23T16:03:48Z</time>
      </trkpt>
      <trkpt lat="43.46319" lon="6.46323">
        <ele>180</ele>
        <time>2017-09-23T16:03:53Z</time>
      </trkpt>
      <trkpt lat="43.4633" lon="6.46326">
        <ele>177</ele>
        <time>2017-09-23T16:03:57Z</time>
      </trkpt>
      <trkpt lat="43.46338" lon="6.46336">
        <ele>173</ele>
        <time>2017-09-23T16:04:01Z</time>
      </trkpt>
      <trkpt lat="43.46345" lon="6.46362">
        <ele>173</ele>
        <time>2017-09-23T16:04:05Z</time>
      </trkpt>
      <trkpt lat="43.46348" lon="6.46376">
        <ele>173</ele>
        <time>2017-09-23T16:04:07Z</time>
      </trkpt>
      <trkpt lat="43.4635" lon="6.46392">
        <ele>173</ele>
        <time>2017-09-23T16:04:09Z</time>
      </trkpt>
      <trkpt lat="43.46352" lon="6.46407">
        <ele>172</ele>
        <time>2017-09-23T16:04:11Z</time>
      </trkpt>
      <trkpt lat="43.46358" lon="6.46425">
        <ele>169</ele>
        <time>2017-09-23T16:04:14Z</time>
      </trkpt>
      <trkpt lat="43.46361" lon="6.46439">
        <ele>169</ele>
        <time>2017-09-23T16:04:16Z</time>
      </trkpt>
      <trkpt lat="43.46364" lon="6.46456">
        <ele>168</ele>
        <time>2017-09-23T16:04:18Z</time>
      </trkpt>
      <trkpt lat="43.46367" lon="6.46475">
        <ele>168</ele>
        <time>2017-09-23T16:04:20Z</time>
      </trkpt>
      <trkpt lat="43.46369" lon="6.46497">
        <ele>167</ele>
        <time>2017-09-23T16:04:22Z</time>
      </trkpt>
      <trkpt lat="43.46369" lon="6.46514">
        <ele>163</ele>
        <time>2017-09-23T16:04:24Z</time>
      </trkpt>
      <trkpt lat="43.46372" lon="6.46537">
        <ele>162</ele>
        <time>2017-09-23T16:04:26Z</time>
      </trkpt>
      <trkpt lat="43.4637" lon="6.4656">
        <ele>162</ele>
        <time>2017-09-23T16:04:28Z</time>
      </trkpt>
      <trkpt lat="43.46366" lon="6.4658">
        <ele>161</ele>
        <time>2017-09-23T16:04:30Z</time>
      </trkpt>
      <trkpt lat="43.46361" lon="6.46603">
        <ele>157</ele>
        <time>2017-09-23T16:04:32Z</time>
      </trkpt>
      <trkpt lat="43.46358" lon="6.46625">
        <ele>156</ele>
        <time>2017-09-23T16:04:35Z</time>
      </trkpt>
      <trkpt lat="43.46357" lon="6.46652">
        <ele>156</ele>
        <time>2017-09-23T16:04:37Z</time>
      </trkpt>
      <trkpt lat="43.4636" lon="6.46668">
        <ele>152</ele>
        <time>2017-09-23T16:04:39Z</time>
      </trkpt>
      <trkpt lat="43.46364" lon="6.46683">
        <ele>151</ele>
        <time>2017-09-23T16:04:41Z</time>
      </trkpt>
      <trkpt lat="43.4637" lon="6.46699">
        <ele>150</ele>
        <time>2017-09-23T16:04:43Z</time>
      </trkpt>
      <trkpt lat="43.46372" lon="6.46715">
        <ele>150</ele>
        <time>2017-09-23T16:04:45Z</time>
      </trkpt>
      <trkpt lat="43.46375" lon="6.46731">
        <ele>149</ele>
        <time>2017-09-23T16:04:47Z</time>
      </trkpt>
      <trkpt lat="43.46372" lon="6.46746">
        <ele>149</ele>
        <time>2017-09-23T16:04:49Z</time>
      </trkpt>
      <trkpt lat="43.46366" lon="6.46762">
        <ele>145</ele>
        <time>2017-09-23T16:04:51Z</time>
      </trkpt>
      <trkpt lat="43.46364" lon="6.46776">
        <ele>145</ele>
        <time>2017-09-23T16:04:53Z</time>
      </trkpt>
      <trkpt lat="43.46367" lon="6.46789">
        <ele>144</ele>
        <time>2017-09-23T16:04:55Z</time>
      </trkpt>
      <trkpt lat="43.46369" lon="6.46803">
        <ele>143</ele>
        <time>2017-09-23T16:04:57Z</time>
      </trkpt>
      <trkpt lat="43.4636" lon="6.46829">
        <ele>143</ele>
        <time>2017-09-23T16:05:00Z</time>
      </trkpt>
      <trkpt lat="43.46356" lon="6.46846">
        <ele>138</ele>
        <time>2017-09-23T16:05:02Z</time>
      </trkpt>
      <trkpt lat="43.46352" lon="6.46862">
        <ele>137</ele>
        <time>2017-09-23T16:05:04Z</time>
      </trkpt>
      <trkpt lat="43.46348" lon="6.46875">
        <ele>136</ele>
        <time>2017-09-23T16:05:06Z</time>
      </trkpt>
      <trkpt lat="43.46348" lon="6.46891">
        <ele>136</ele>
        <time>2017-09-23T16:05:08Z</time>
      </trkpt>
      <trkpt lat="43.46349" lon="6.46906">
        <ele>135</ele>
        <time>2017-09-23T16:05:10Z</time>
      </trkpt>
      <trkpt lat="43.46358" lon="6.46923">
        <ele>131</ele>
        <time>2017-09-23T16:05:14Z</time>
      </trkpt>
      <trkpt lat="43.46376" lon="6.46945">
        <ele>129</ele>
        <time>2017-09-23T16:05:19Z</time>
      </trkpt>
      <trkpt lat="43.46384" lon="6.46961">
        <ele>128</ele>
        <time>2017-09-23T16:05:21Z</time>
      </trkpt>
      <trkpt lat="43.4639" lon="6.46977">
        <ele>128</ele>
        <time>2017-09-23T16:05:23Z</time>
      </trkpt>
      <trkpt lat="43.46396" lon="6.4699">
        <ele>127</ele>
        <time>2017-09-23T16:05:25Z</time>
      </trkpt>
      <trkpt lat="43.46399" lon="6.47013">
        <ele>124</ele>
        <time>2017-09-23T16:05:29Z</time>
      </trkpt>
      <trkpt lat="43.46387" lon="6.47029">
        <ele>123</ele>
        <time>2017-09-23T16:05:33Z</time>
      </trkpt>
      <trkpt lat="43.46377" lon="6.47042">
        <ele>123</ele>
        <time>2017-09-23T16:05:36Z</time>
      </trkpt>
      <trkpt lat="43.46363" lon="6.47061">
        <ele>123</ele>
        <time>2017-09-23T16:05:40Z</time>
      </trkpt>
      <trkpt lat="43.46347" lon="6.47078">
        <ele>123</ele>
        <time>2017-09-23T16:05:44Z</time>
      </trkpt>
      <trkpt lat="43.46337" lon="6.47091">
        <ele>122</ele>
        <time>2017-09-23T16:05:46Z</time>
      </trkpt>
      <trkpt lat="43.4633" lon="6.47102">
        <ele>122</ele>
        <time>2017-09-23T16:05:48Z</time>
      </trkpt>
      <trkpt lat="43.46323" lon="6.47113">
        <ele>122</ele>
        <time>2017-09-23T16:05:50Z</time>
      </trkpt>
      <trkpt lat="43.46317" lon="6.47125">
        <ele>122</ele>
        <time>2017-09-23T16:05:52Z</time>
      </trkpt>
      <trkpt lat="43.46313" lon="6.47145">
        <ele>121</ele>
        <time>2017-09-23T16:05:54Z</time>
      </trkpt>
      <trkpt lat="43.46308" lon="6.47172">
        <ele>121</ele>
        <time>2017-09-23T16:05:59Z</time>
      </trkpt>
      <trkpt lat="43.46303" lon="6.47184">
        <ele>121</ele>
        <time>2017-09-23T16:06:01Z</time>
      </trkpt>
      <trkpt lat="43.463" lon="6.47197">
        <ele>121</ele>
        <time>2017-09-23T16:06:03Z</time>
      </trkpt>
      <trkpt lat="43.46296" lon="6.4721">
        <ele>121</ele>
        <time>2017-09-23T16:06:05Z</time>
      </trkpt>
      <trkpt lat="43.46291" lon="6.47224">
        <ele>121</ele>
        <time>2017-09-23T16:06:07Z</time>
      </trkpt>
      <trkpt lat="43.46286" lon="6.47235">
        <ele>121</ele>
        <time>2017-09-23T16:06:09Z</time>
      </trkpt>
      <trkpt lat="43.46283" lon="6.47249">
        <ele>121</ele>
        <time>2017-09-23T16:06:11Z</time>
      </trkpt>
      <trkpt lat="43.4628" lon="6.47261">
        <ele>121</ele>
        <time>2017-09-23T16:06:13Z</time>
      </trkpt>
      <trkpt lat="43.46274" lon="6.47272">
        <ele>121</ele>
        <time>2017-09-23T16:06:15Z</time>
      </trkpt>
      <trkpt lat="43.46262" lon="6.47288">
        <ele>121</ele>
        <time>2017-09-23T16:06:18Z</time>
      </trkpt>
      <trkpt lat="43.46253" lon="6.47298">
        <ele>121</ele>
        <time>2017-09-23T16:06:20Z</time>
      </trkpt>
      <trkpt lat="43.46245" lon="6.47309">
        <ele>121</ele>
        <time>2017-09-23T16:06:22Z</time>
      </trkpt>
      <trkpt lat="43.46237" lon="6.47316">
        <ele>121</ele>
        <time>2017-09-23T16:06:24Z</time>
      </trkpt>
      <trkpt lat="43.46228" lon="6.47326">
        <ele>121</ele>
        <time>2017-09-23T16:06:26Z</time>
      </trkpt>
      <trkpt lat="43.46219" lon="6.47336">
        <ele>120</ele>
        <time>2017-09-23T16:06:28Z</time>
      </trkpt>
      <trkpt lat="43.46209" lon="6.47348">
        <ele>119</ele>
        <time>2017-09-23T16:06:30Z</time>
      </trkpt>
      <trkpt lat="43.46199" lon="6.47359">
        <ele>119</ele>
        <time>2017-09-23T16:06:32Z</time>
      </trkpt>
      <trkpt lat="43.46189" lon="6.47369">
        <ele>119</ele>
        <time>2017-09-23T16:06:34Z</time>
      </trkpt>
      <trkpt lat="43.46175" lon="6.47383">
        <ele>119</ele>
        <time>2017-09-23T16:06:37Z</time>
      </trkpt>
      <trkpt lat="43.46165" lon="6.4739">
        <ele>117</ele>
        <time>2017-09-23T16:06:39Z</time>
      </trkpt>
      <trkpt lat="43.46154" lon="6.47395">
        <ele>117</ele>
        <time>2017-09-23T16:06:41Z</time>
      </trkpt>
      <trkpt lat="43.46142" lon="6.47402">
        <ele>117</ele>
        <time>2017-09-23T16:06:43Z</time>
      </trkpt>
      <trkpt lat="43.46131" lon="6.47411">
        <ele>117</ele>
        <time>2017-09-23T16:06:45Z</time>
      </trkpt>
      <trkpt lat="43.4612" lon="6.47421">
        <ele>115</ele>
        <time>2017-09-23T16:06:47Z</time>
      </trkpt>
      <trkpt lat="43.46109" lon="6.4743">
        <ele>115</ele>
        <time>2017-09-23T16:06:49Z</time>
      </trkpt>
      <trkpt lat="43.46097" lon="6.47439">
        <ele>115</ele>
        <time>2017-09-23T16:06:51Z</time>
      </trkpt>
      <trkpt lat="43.46085" lon="6.47449">
        <ele>114</ele>
        <time>2017-09-23T16:06:53Z</time>
      </trkpt>
      <trkpt lat="43.46068" lon="6.47462">
        <ele>110</ele>
        <time>2017-09-23T16:06:56Z</time>
      </trkpt>
      <trkpt lat="43.46057" lon="6.47473">
        <ele>110</ele>
        <time>2017-09-23T16:06:58Z</time>
      </trkpt>
      <trkpt lat="43.4605" lon="6.47482">
        <ele>109</ele>
        <time>2017-09-23T16:07:00Z</time>
      </trkpt>
      <trkpt lat="43.46043" lon="6.47491">
        <ele>108</ele>
        <time>2017-09-23T16:07:02Z</time>
      </trkpt>
      <trkpt lat="43.46043" lon="6.47504">
        <ele>103</ele>
        <time>2017-09-23T16:07:04Z</time>
      </trkpt>
      <trkpt lat="43.46049" lon="6.47519">
        <ele>103</ele>
        <time>2017-09-23T16:07:06Z</time>
      </trkpt>
      <trkpt lat="43.46058" lon="6.47532">
        <ele>103</ele>
        <time>2017-09-23T16:07:08Z</time>
      </trkpt>
      <trkpt lat="43.46067" lon="6.47544">
        <ele>103</ele>
        <time>2017-09-23T16:07:10Z</time>
      </trkpt>
      <trkpt lat="43.46078" lon="6.47558">
        <ele>103</ele>
        <time>2017-09-23T16:07:12Z</time>
      </trkpt>
      <trkpt lat="43.46089" lon="6.4757">
        <ele>106</ele>
        <time>2017-09-23T16:07:14Z</time>
      </trkpt>
      <trkpt lat="43.46102" lon="6.47576">
        <ele>107</ele>
        <time>2017-09-23T16:07:16Z</time>
      </trkpt>
      <trkpt lat="43.46117" lon="6.47587">
        <ele>104</ele>
        <time>2017-09-23T16:07:19Z</time>
      </trkpt>
      <trkpt lat="43.46125" lon="6.47596">
        <ele>104</ele>
        <time>2017-09-23T16:07:21Z</time>
      </trkpt>
      <trkpt lat="43.46132" lon="6.47605">
        <ele>104</ele>
        <time>2017-09-23T16:07:23Z</time>
      </trkpt>
      <trkpt lat="43.46139" lon="6.47616">
        <ele>103</ele>
        <time>2017-09-23T16:07:27Z</time>
      </trkpt>
      <trkpt lat="43.46124" lon="6.47608">
        <ele>103</ele>
        <time>2017-09-23T16:07:38Z</time>
      </trkpt>
      <trkpt lat="43.46112" lon="6.47597">
        <ele>103</ele>
        <time>2017-09-23T16:07:42Z</time>
      </trkpt>
      <trkpt lat="43.46098" lon="6.47586">
        <ele>103</ele>
        <time>2017-09-23T16:07:46Z</time>
      </trkpt>
      <trkpt lat="43.46088" lon="6.47593">
        <ele>103</ele>
        <time>2017-09-23T16:07:52Z</time>
      </trkpt>
      <trkpt lat="43.46087" lon="6.47607">
        <ele>102</ele>
        <time>2017-09-23T16:08:09Z</time>
      </trkpt>
      <trkpt lat="43.46081" lon="6.47621">
        <ele>96</ele>
        <time>2017-09-23T16:08:14Z</time>
      </trkpt>
      <trkpt lat="43.46082" lon="6.47643">
        <ele>95</ele>
        <time>2017-09-23T16:08:20Z</time>
      </trkpt>
      <trkpt lat="43.46072" lon="6.47655">
        <ele>94</ele>
        <time>2017-09-23T16:08:22Z</time>
      </trkpt>
      <trkpt lat="43.46062" lon="6.47675">
        <ele>91</ele>
        <time>2017-09-23T16:08:26Z</time>
      </trkpt>
      <trkpt lat="43.46054" lon="6.47683">
        <ele>90</ele>
        <time>2017-09-23T16:08:28Z</time>
      </trkpt>
      <trkpt lat="43.46055" lon="6.4771">
        <ele>89</ele>
        <time>2017-09-23T16:08:32Z</time>
      </trkpt>
      <trkpt lat="43.46063" lon="6.47731">
        <ele>89</ele>
        <time>2017-09-23T16:08:35Z</time>
      </trkpt>
      <trkpt lat="43.46068" lon="6.47746">
        <ele>89</ele>
        <time>2017-09-23T16:08:37Z</time>
      </trkpt>
      <trkpt lat="43.46069" lon="6.47762">
        <ele>88</ele>
        <time>2017-09-23T16:08:39Z</time>
      </trkpt>
      <trkpt lat="43.46063" lon="6.47772">
        <ele>88</ele>
        <time>2017-09-23T16:08:41Z</time>
      </trkpt>
      <trkpt lat="43.46054" lon="6.47779">
        <ele>87</ele>
        <time>2017-09-23T16:08:43Z</time>
      </trkpt>
      <trkpt lat="43.46044" lon="6.47785">
        <ele>87</ele>
        <time>2017-09-23T16:08:45Z</time>
      </trkpt>
      <trkpt lat="43.46034" lon="6.47792">
        <ele>87</ele>
        <time>2017-09-23T16:08:47Z</time>
      </trkpt>
      <trkpt lat="43.46024" lon="6.47799">
        <ele>86</ele>
        <time>2017-09-23T16:08:49Z</time>
      </trkpt>
      <trkpt lat="43.46019" lon="6.47811">
        <ele>86</ele>
        <time>2017-09-23T16:08:52Z</time>
      </trkpt>
      <trkpt lat="43.46022" lon="6.47823">
        <ele>86</ele>
        <time>2017-09-23T16:08:54Z</time>
      </trkpt>
      <trkpt lat="43.46025" lon="6.47835">
        <ele>85</ele>
        <time>2017-09-23T16:08:56Z</time>
      </trkpt>
      <trkpt lat="43.46029" lon="6.47848">
        <ele>86</ele>
        <time>2017-09-23T16:08:58Z</time>
      </trkpt>
      <trkpt lat="43.46031" lon="6.47861">
        <ele>86</ele>
        <time>2017-09-23T16:09:00Z</time>
      </trkpt>
      <trkpt lat="43.46035" lon="6.47874">
        <ele>86</ele>
        <time>2017-09-23T16:09:02Z</time>
      </trkpt>
      <trkpt lat="43.46038" lon="6.47887">
        <ele>86</ele>
        <time>2017-09-23T16:09:04Z</time>
      </trkpt>
      <trkpt lat="43.46041" lon="6.479">
        <ele>86</ele>
        <time>2017-09-23T16:09:06Z</time>
      </trkpt>
      <trkpt lat="43.46045" lon="6.47912">
        <ele>86</ele>
        <time>2017-09-23T16:09:08Z</time>
      </trkpt>
      <trkpt lat="43.46051" lon="6.47924">
        <ele>85</ele>
        <time>2017-09-23T16:09:10Z</time>
      </trkpt>
      <trkpt lat="43.4606" lon="6.47943">
        <ele>85</ele>
        <time>2017-09-23T16:09:13Z</time>
      </trkpt>
      <trkpt lat="43.46066" lon="6.47954">
        <ele>85</ele>
        <time>2017-09-23T16:09:15Z</time>
      </trkpt>
      <trkpt lat="43.46073" lon="6.47966">
        <ele>85</ele>
        <time>2017-09-23T16:09:17Z</time>
      </trkpt>
      <trkpt lat="43.46079" lon="6.47977">
        <ele>85</ele>
        <time>2017-09-23T16:09:19Z</time>
      </trkpt>
      <trkpt lat="43.46088" lon="6.47989">
        <ele>85</ele>
        <time>2017-09-23T16:09:21Z</time>
      </trkpt>
      <trkpt lat="43.46096" lon="6.48003">
        <ele>83</ele>
        <time>2017-09-23T16:09:23Z</time>
      </trkpt>
      <trkpt lat="43.46104" lon="6.48015">
        <ele>82</ele>
        <time>2017-09-23T16:09:25Z</time>
      </trkpt>
      <trkpt lat="43.46111" lon="6.48024">
        <ele>81</ele>
        <time>2017-09-23T16:09:27Z</time>
      </trkpt>
      <trkpt lat="43.4611" lon="6.48042">
        <ele>80</ele>
        <time>2017-09-23T16:09:30Z</time>
      </trkpt>
      <trkpt lat="43.46096" lon="6.48053">
        <ele>80</ele>
        <time>2017-09-23T16:09:34Z</time>
      </trkpt>
      <trkpt lat="43.46084" lon="6.48066">
        <ele>80</ele>
        <time>2017-09-23T16:09:38Z</time>
      </trkpt>
      <trkpt lat="43.46071" lon="6.48081">
        <ele>81</ele>
        <time>2017-09-23T16:09:42Z</time>
      </trkpt>
      <trkpt lat="43.46057" lon="6.48094">
        <ele>79</ele>
        <time>2017-09-23T16:09:46Z</time>
      </trkpt>
      <trkpt lat="43.46043" lon="6.48107">
        <ele>78</ele>
        <time>2017-09-23T16:09:51Z</time>
      </trkpt>
      <trkpt lat="43.46036" lon="6.48117">
        <ele>78</ele>
        <time>2017-09-23T16:09:53Z</time>
      </trkpt>
      <trkpt lat="43.46037" lon="6.48118">
        <ele>78</ele>
        <time>2017-09-23T16:09:54Z</time>
      </trkpt>
      <trkpt lat="43.46038" lon="6.48121">
        <ele>78</ele>
        <time>2017-09-23T16:10:05Z</time>
      </trkpt>
    </trkseg>
  </trk>
</gpx>